<?xml version="1.0" encoding="UTF-8" standalone="no" ?>
<gpx xmlns="http://www.topografix.com/GPX/1/1" xmlns:xsi="http://www.w3.org/2001/XMLSchema-instance" xsi:schemaLocation="http://www.topografix.com/GPX/1/1 http://www.topografix.com/GPX/1/1/gpx.xsd" version="1.1" creator="VisuGPX - https://www.visugpx.com">
  <metadata>
    <name>Crozon, tour de Landévennec, petit parcours</name>
    <desc><![CDATA[Crozon, tour de Landévennec, petit parcours.]]></desc>
  </metadata>
  <trk>
    <name><![CDATA[AVR-16-13 13:01:48]]></name>
    <trkseg>
      <trkpt lat="48.29526" lon="-4.27188">
        <ele>26.57</ele>
        <time>2013-04-16T07:50:18Z</time>
      </trkpt>
      <trkpt lat="48.29525" lon="-4.27191">
        <ele>28.5</ele>
        <time>2013-04-16T07:50:34Z</time>
      </trkpt>
      <trkpt lat="48.29525" lon="-4.27193">
        <ele>29.46</ele>
        <time>2013-04-16T07:50:57Z</time>
      </trkpt>
      <trkpt lat="48.29528" lon="-4.27204">
        <ele>29.94</ele>
        <time>2013-04-16T07:51:09Z</time>
      </trkpt>
      <trkpt lat="48.29528" lon="-4.27205">
        <ele>30.42</ele>
        <time>2013-04-16T07:51:10Z</time>
      </trkpt>
      <trkpt lat="48.29526" lon="-4.27209">
        <ele>30.9</ele>
        <time>2013-04-16T07:51:23Z</time>
      </trkpt>
      <trkpt lat="48.29532" lon="-4.27235">
        <ele>32.82</ele>
        <time>2013-04-16T07:51:39Z</time>
      </trkpt>
      <trkpt lat="48.29534" lon="-4.27241">
        <ele>32.82</ele>
        <time>2013-04-16T07:51:43Z</time>
      </trkpt>
      <trkpt lat="48.29532" lon="-4.27263">
        <ele>34.74</ele>
        <time>2013-04-16T07:51:59Z</time>
      </trkpt>
      <trkpt lat="48.29532" lon="-4.27278">
        <ele>35.71</ele>
        <time>2013-04-16T07:52:10Z</time>
      </trkpt>
      <trkpt lat="48.29525" lon="-4.27301">
        <ele>37.63</ele>
        <time>2013-04-16T07:52:25Z</time>
      </trkpt>
      <trkpt lat="48.29525" lon="-4.27302">
        <ele>38.11</ele>
        <time>2013-04-16T07:52:26Z</time>
      </trkpt>
      <trkpt lat="48.2952" lon="-4.27316">
        <ele>38.59</ele>
        <time>2013-04-16T07:52:34Z</time>
      </trkpt>
      <trkpt lat="48.29517" lon="-4.27327">
        <ele>40.51</ele>
        <time>2013-04-16T07:52:48Z</time>
      </trkpt>
      <trkpt lat="48.29509" lon="-4.27341">
        <ele>40.99</ele>
        <time>2013-04-16T07:53:01Z</time>
      </trkpt>
      <trkpt lat="48.29502" lon="-4.27359">
        <ele>42.44</ele>
        <time>2013-04-16T07:53:17Z</time>
      </trkpt>
      <trkpt lat="48.29499" lon="-4.27369">
        <ele>43.88</ele>
        <time>2013-04-16T07:53:32Z</time>
      </trkpt>
      <trkpt lat="48.2949" lon="-4.27391">
        <ele>45.32</ele>
        <time>2013-04-16T07:53:48Z</time>
      </trkpt>
      <trkpt lat="48.29482" lon="-4.27411">
        <ele>45.32</ele>
        <time>2013-04-16T07:54:05Z</time>
      </trkpt>
      <trkpt lat="48.29477" lon="-4.27434">
        <ele>45.8</ele>
        <time>2013-04-16T07:54:18Z</time>
      </trkpt>
      <trkpt lat="48.29475" lon="-4.27465">
        <ele>46.76</ele>
        <time>2013-04-16T07:54:37Z</time>
      </trkpt>
      <trkpt lat="48.29474" lon="-4.27474">
        <ele>46.76</ele>
        <time>2013-04-16T07:54:52Z</time>
      </trkpt>
      <trkpt lat="48.2947" lon="-4.27487">
        <ele>47.72</ele>
        <time>2013-04-16T07:55:01Z</time>
      </trkpt>
      <trkpt lat="48.29461" lon="-4.2752">
        <ele>48.2</ele>
        <time>2013-04-16T07:55:16Z</time>
      </trkpt>
      <trkpt lat="48.29461" lon="-4.27524">
        <ele>47.72</ele>
        <time>2013-04-16T07:55:18Z</time>
      </trkpt>
      <trkpt lat="48.29459" lon="-4.27528">
        <ele>48.68</ele>
        <time>2013-04-16T07:55:21Z</time>
      </trkpt>
      <trkpt lat="48.29452" lon="-4.27545">
        <ele>49.65</ele>
        <time>2013-04-16T07:55:34Z</time>
      </trkpt>
      <trkpt lat="48.29451" lon="-4.27569">
        <ele>51.09</ele>
        <time>2013-04-16T07:55:52Z</time>
      </trkpt>
      <trkpt lat="48.2945" lon="-4.27588">
        <ele>53.49</ele>
        <time>2013-04-16T07:56:05Z</time>
      </trkpt>
      <trkpt lat="48.29452" lon="-4.27614">
        <ele>54.45</ele>
        <time>2013-04-16T07:56:18Z</time>
      </trkpt>
      <trkpt lat="48.29451" lon="-4.27631">
        <ele>56.86</ele>
        <time>2013-04-16T07:56:29Z</time>
      </trkpt>
      <trkpt lat="48.29454" lon="-4.2764">
        <ele>57.34</ele>
        <time>2013-04-16T07:56:44Z</time>
      </trkpt>
      <trkpt lat="48.29457" lon="-4.27647">
        <ele>57.34</ele>
        <time>2013-04-16T07:56:52Z</time>
      </trkpt>
      <trkpt lat="48.29456" lon="-4.27649">
        <ele>57.82</ele>
        <time>2013-04-16T07:56:54Z</time>
      </trkpt>
      <trkpt lat="48.29458" lon="-4.27657">
        <ele>58.78</ele>
        <time>2013-04-16T07:56:59Z</time>
      </trkpt>
      <trkpt lat="48.29458" lon="-4.2767">
        <ele>58.78</ele>
        <time>2013-04-16T07:57:08Z</time>
      </trkpt>
      <trkpt lat="48.29459" lon="-4.27685">
        <ele>60.7</ele>
        <time>2013-04-16T07:57:20Z</time>
      </trkpt>
      <trkpt lat="48.29457" lon="-4.27696">
        <ele>60.7</ele>
        <time>2013-04-16T07:57:34Z</time>
      </trkpt>
      <trkpt lat="48.29457" lon="-4.27703">
        <ele>61.18</ele>
        <time>2013-04-16T07:57:39Z</time>
      </trkpt>
      <trkpt lat="48.29455" lon="-4.27714">
        <ele>61.66</ele>
        <time>2013-04-16T07:57:47Z</time>
      </trkpt>
      <trkpt lat="48.29447" lon="-4.27731">
        <ele>63.1</ele>
        <time>2013-04-16T07:57:59Z</time>
      </trkpt>
      <trkpt lat="48.29447" lon="-4.27733">
        <ele>63.1</ele>
        <time>2013-04-16T07:58:00Z</time>
      </trkpt>
      <trkpt lat="48.29451" lon="-4.27758">
        <ele>65.03</ele>
        <time>2013-04-16T07:58:16Z</time>
      </trkpt>
      <trkpt lat="48.29451" lon="-4.27769">
        <ele>65.51</ele>
        <time>2013-04-16T07:58:25Z</time>
      </trkpt>
      <trkpt lat="48.2945" lon="-4.27793">
        <ele>68.39</ele>
        <time>2013-04-16T07:58:41Z</time>
      </trkpt>
      <trkpt lat="48.29451" lon="-4.27801">
        <ele>69.35</ele>
        <time>2013-04-16T07:58:51Z</time>
      </trkpt>
      <trkpt lat="48.29444" lon="-4.2781">
        <ele>70.31</ele>
        <time>2013-04-16T07:59:04Z</time>
      </trkpt>
      <trkpt lat="48.29446" lon="-4.27825">
        <ele>71.27</ele>
        <time>2013-04-16T07:59:24Z</time>
      </trkpt>
      <trkpt lat="48.29443" lon="-4.27832">
        <ele>72.24</ele>
        <time>2013-04-16T07:59:29Z</time>
      </trkpt>
      <trkpt lat="48.2944" lon="-4.27851">
        <ele>74.16</ele>
        <time>2013-04-16T07:59:42Z</time>
      </trkpt>
      <trkpt lat="48.29438" lon="-4.27862">
        <ele>75.12</ele>
        <time>2013-04-16T07:59:50Z</time>
      </trkpt>
      <trkpt lat="48.29433" lon="-4.27893">
        <ele>77.52</ele>
        <time>2013-04-16T08:00:10Z</time>
      </trkpt>
      <trkpt lat="48.29433" lon="-4.27895">
        <ele>77.52</ele>
        <time>2013-04-16T08:00:11Z</time>
      </trkpt>
      <trkpt lat="48.29432" lon="-4.27898">
        <ele>78</ele>
        <time>2013-04-16T08:00:13Z</time>
      </trkpt>
      <trkpt lat="48.29432" lon="-4.27909">
        <ele>78.48</ele>
        <time>2013-04-16T08:00:28Z</time>
      </trkpt>
      <trkpt lat="48.29432" lon="-4.27909">
        <ele>78</ele>
        <time>2013-04-16T08:00:41Z</time>
      </trkpt>
      <trkpt lat="48.2943" lon="-4.27915">
        <ele>78.48</ele>
        <time>2013-04-16T08:00:45Z</time>
      </trkpt>
      <trkpt lat="48.2943" lon="-4.27918">
        <ele>78.97</ele>
        <time>2013-04-16T08:00:47Z</time>
      </trkpt>
      <trkpt lat="48.29426" lon="-4.27929">
        <ele>79.45</ele>
        <time>2013-04-16T08:00:54Z</time>
      </trkpt>
      <trkpt lat="48.2942" lon="-4.27948">
        <ele>80.41</ele>
        <time>2013-04-16T08:01:08Z</time>
      </trkpt>
      <trkpt lat="48.29415" lon="-4.27954">
        <ele>80.41</ele>
        <time>2013-04-16T08:01:15Z</time>
      </trkpt>
      <trkpt lat="48.29414" lon="-4.2796">
        <ele>80.89</ele>
        <time>2013-04-16T08:01:19Z</time>
      </trkpt>
      <trkpt lat="48.2941" lon="-4.27976">
        <ele>81.37</ele>
        <time>2013-04-16T08:01:29Z</time>
      </trkpt>
      <trkpt lat="48.29404" lon="-4.27987">
        <ele>81.85</ele>
        <time>2013-04-16T08:01:36Z</time>
      </trkpt>
      <trkpt lat="48.29398" lon="-4.28004">
        <ele>81.37</ele>
        <time>2013-04-16T08:01:55Z</time>
      </trkpt>
      <trkpt lat="48.29399" lon="-4.28005">
        <ele>82.33</ele>
        <time>2013-04-16T08:02:28Z</time>
      </trkpt>
      <trkpt lat="48.29397" lon="-4.28011">
        <ele>83.29</ele>
        <time>2013-04-16T08:02:49Z</time>
      </trkpt>
      <trkpt lat="48.29398" lon="-4.28013">
        <ele>82.81</ele>
        <time>2013-04-16T08:03:05Z</time>
      </trkpt>
      <trkpt lat="48.294" lon="-4.28018">
        <ele>82.81</ele>
        <time>2013-04-16T08:03:20Z</time>
      </trkpt>
      <trkpt lat="48.294" lon="-4.28019">
        <ele>81.37</ele>
        <time>2013-04-16T08:03:37Z</time>
      </trkpt>
      <trkpt lat="48.294" lon="-4.2802">
        <ele>82.81</ele>
        <time>2013-04-16T08:04:52Z</time>
      </trkpt>
      <trkpt lat="48.294" lon="-4.2802">
        <ele>82.81</ele>
        <time>2013-04-16T08:05:17Z</time>
      </trkpt>
      <trkpt lat="48.29395" lon="-4.28034">
        <ele>82.33</ele>
        <time>2013-04-16T08:05:37Z</time>
      </trkpt>
      <trkpt lat="48.29392" lon="-4.28055">
        <ele>82.33</ele>
        <time>2013-04-16T08:05:54Z</time>
      </trkpt>
      <trkpt lat="48.2939" lon="-4.28074">
        <ele>81.85</ele>
        <time>2013-04-16T08:06:07Z</time>
      </trkpt>
      <trkpt lat="48.29391" lon="-4.28085">
        <ele>81.85</ele>
        <time>2013-04-16T08:06:14Z</time>
      </trkpt>
      <trkpt lat="48.29391" lon="-4.28106">
        <ele>80.89</ele>
        <time>2013-04-16T08:06:28Z</time>
      </trkpt>
      <trkpt lat="48.29391" lon="-4.28109">
        <ele>82.33</ele>
        <time>2013-04-16T08:06:30Z</time>
      </trkpt>
      <trkpt lat="48.29391" lon="-4.2811">
        <ele>82.33</ele>
        <time>2013-04-16T08:06:31Z</time>
      </trkpt>
      <trkpt lat="48.29391" lon="-4.28126">
        <ele>78.97</ele>
        <time>2013-04-16T08:06:44Z</time>
      </trkpt>
      <trkpt lat="48.29392" lon="-4.28128">
        <ele>78.48</ele>
        <time>2013-04-16T08:06:46Z</time>
      </trkpt>
      <trkpt lat="48.29391" lon="-4.28132">
        <ele>79.45</ele>
        <time>2013-04-16T08:06:49Z</time>
      </trkpt>
      <trkpt lat="48.2939" lon="-4.28161">
        <ele>78.48</ele>
        <time>2013-04-16T08:07:08Z</time>
      </trkpt>
      <trkpt lat="48.29391" lon="-4.28173">
        <ele>78</ele>
        <time>2013-04-16T08:07:18Z</time>
      </trkpt>
      <trkpt lat="48.29393" lon="-4.2818">
        <ele>78</ele>
        <time>2013-04-16T08:07:23Z</time>
      </trkpt>
      <trkpt lat="48.29394" lon="-4.28183">
        <ele>77.04</ele>
        <time>2013-04-16T08:07:25Z</time>
      </trkpt>
      <trkpt lat="48.29395" lon="-4.28186">
        <ele>78</ele>
        <time>2013-04-16T08:07:27Z</time>
      </trkpt>
      <trkpt lat="48.29404" lon="-4.28182">
        <ele>76.56</ele>
        <time>2013-04-16T08:07:35Z</time>
      </trkpt>
      <trkpt lat="48.29416" lon="-4.28191">
        <ele>74.64</ele>
        <time>2013-04-16T08:07:50Z</time>
      </trkpt>
      <trkpt lat="48.29427" lon="-4.28206">
        <ele>73.68</ele>
        <time>2013-04-16T08:08:04Z</time>
      </trkpt>
      <trkpt lat="48.29436" lon="-4.28218">
        <ele>72.24</ele>
        <time>2013-04-16T08:08:18Z</time>
      </trkpt>
      <trkpt lat="48.29443" lon="-4.28231">
        <ele>71.27</ele>
        <time>2013-04-16T08:08:34Z</time>
      </trkpt>
      <trkpt lat="48.29445" lon="-4.28234">
        <ele>70.31</ele>
        <time>2013-04-16T08:08:41Z</time>
      </trkpt>
      <trkpt lat="48.2945" lon="-4.28243">
        <ele>69.83</ele>
        <time>2013-04-16T08:08:51Z</time>
      </trkpt>
      <trkpt lat="48.29457" lon="-4.28256">
        <ele>67.91</ele>
        <time>2013-04-16T08:09:06Z</time>
      </trkpt>
      <trkpt lat="48.29459" lon="-4.28268">
        <ele>65.99</ele>
        <time>2013-04-16T08:09:19Z</time>
      </trkpt>
      <trkpt lat="48.29468" lon="-4.28281">
        <ele>64.07</ele>
        <time>2013-04-16T08:09:32Z</time>
      </trkpt>
      <trkpt lat="48.29477" lon="-4.28292">
        <ele>63.1</ele>
        <time>2013-04-16T08:09:45Z</time>
      </trkpt>
      <trkpt lat="48.29486" lon="-4.28309">
        <ele>61.66</ele>
        <time>2013-04-16T08:10:02Z</time>
      </trkpt>
      <trkpt lat="48.29492" lon="-4.28323">
        <ele>60.22</ele>
        <time>2013-04-16T08:10:20Z</time>
      </trkpt>
      <trkpt lat="48.29495" lon="-4.28338">
        <ele>58.78</ele>
        <time>2013-04-16T08:10:35Z</time>
      </trkpt>
      <trkpt lat="48.29504" lon="-4.28353">
        <ele>56.37</ele>
        <time>2013-04-16T08:10:50Z</time>
      </trkpt>
      <trkpt lat="48.2952" lon="-4.28351">
        <ele>54.93</ele>
        <time>2013-04-16T08:11:04Z</time>
      </trkpt>
      <trkpt lat="48.29522" lon="-4.28338">
        <ele>54.45</ele>
        <time>2013-04-16T08:11:20Z</time>
      </trkpt>
      <trkpt lat="48.29516" lon="-4.28325">
        <ele>54.45</ele>
        <time>2013-04-16T08:11:37Z</time>
      </trkpt>
      <trkpt lat="48.29514" lon="-4.28312">
        <ele>53.97</ele>
        <time>2013-04-16T08:11:51Z</time>
      </trkpt>
      <trkpt lat="48.29518" lon="-4.28296">
        <ele>52.53</ele>
        <time>2013-04-16T08:12:05Z</time>
      </trkpt>
      <trkpt lat="48.29521" lon="-4.28298">
        <ele>52.05</ele>
        <time>2013-04-16T08:12:08Z</time>
      </trkpt>
      <trkpt lat="48.29523" lon="-4.28298">
        <ele>51.57</ele>
        <time>2013-04-16T08:12:12Z</time>
      </trkpt>
      <trkpt lat="48.29528" lon="-4.28288">
        <ele>49.65</ele>
        <time>2013-04-16T08:12:26Z</time>
      </trkpt>
      <trkpt lat="48.2953" lon="-4.28284">
        <ele>49.16</ele>
        <time>2013-04-16T08:12:28Z</time>
      </trkpt>
      <trkpt lat="48.29535" lon="-4.28272">
        <ele>48.2</ele>
        <time>2013-04-16T08:12:34Z</time>
      </trkpt>
      <trkpt lat="48.29539" lon="-4.28255">
        <ele>47.72</ele>
        <time>2013-04-16T08:12:45Z</time>
      </trkpt>
      <trkpt lat="48.29541" lon="-4.28252">
        <ele>46.76</ele>
        <time>2013-04-16T08:12:48Z</time>
      </trkpt>
      <trkpt lat="48.29544" lon="-4.28244">
        <ele>46.28</ele>
        <time>2013-04-16T08:12:56Z</time>
      </trkpt>
      <trkpt lat="48.29547" lon="-4.28237">
        <ele>45.8</ele>
        <time>2013-04-16T08:13:13Z</time>
      </trkpt>
      <trkpt lat="48.29548" lon="-4.28214">
        <ele>45.32</ele>
        <time>2013-04-16T08:13:27Z</time>
      </trkpt>
      <trkpt lat="48.29549" lon="-4.28203">
        <ele>43.88</ele>
        <time>2013-04-16T08:13:34Z</time>
      </trkpt>
      <trkpt lat="48.2955" lon="-4.28194">
        <ele>43.88</ele>
        <time>2013-04-16T08:13:39Z</time>
      </trkpt>
      <trkpt lat="48.2955" lon="-4.28191">
        <ele>43.4</ele>
        <time>2013-04-16T08:13:41Z</time>
      </trkpt>
      <trkpt lat="48.29557" lon="-4.28178">
        <ele>42.92</ele>
        <time>2013-04-16T08:13:53Z</time>
      </trkpt>
      <trkpt lat="48.29564" lon="-4.28163">
        <ele>41.95</ele>
        <time>2013-04-16T08:14:06Z</time>
      </trkpt>
      <trkpt lat="48.29567" lon="-4.28158">
        <ele>41.95</ele>
        <time>2013-04-16T08:14:10Z</time>
      </trkpt>
      <trkpt lat="48.29571" lon="-4.28144">
        <ele>40.03</ele>
        <time>2013-04-16T08:14:21Z</time>
      </trkpt>
      <trkpt lat="48.29577" lon="-4.28125">
        <ele>39.07</ele>
        <time>2013-04-16T08:14:34Z</time>
      </trkpt>
      <trkpt lat="48.29587" lon="-4.28105">
        <ele>37.15</ele>
        <time>2013-04-16T08:14:50Z</time>
      </trkpt>
      <trkpt lat="48.29593" lon="-4.28093">
        <ele>34.26</ele>
        <time>2013-04-16T08:15:02Z</time>
      </trkpt>
      <trkpt lat="48.29601" lon="-4.28082">
        <ele>33.3</ele>
        <time>2013-04-16T08:15:17Z</time>
      </trkpt>
      <trkpt lat="48.29604" lon="-4.28086">
        <ele>32.34</ele>
        <time>2013-04-16T08:15:30Z</time>
      </trkpt>
      <trkpt lat="48.296" lon="-4.28102">
        <ele>30.42</ele>
        <time>2013-04-16T08:15:46Z</time>
      </trkpt>
      <trkpt lat="48.29602" lon="-4.28121">
        <ele>29.46</ele>
        <time>2013-04-16T08:15:58Z</time>
      </trkpt>
      <trkpt lat="48.29616" lon="-4.28137">
        <ele>28.98</ele>
        <time>2013-04-16T08:16:13Z</time>
      </trkpt>
      <trkpt lat="48.29623" lon="-4.28154">
        <ele>27.53</ele>
        <time>2013-04-16T08:16:26Z</time>
      </trkpt>
      <trkpt lat="48.29625" lon="-4.28172">
        <ele>25.61</ele>
        <time>2013-04-16T08:16:38Z</time>
      </trkpt>
      <trkpt lat="48.29625" lon="-4.28175">
        <ele>25.61</ele>
        <time>2013-04-16T08:16:40Z</time>
      </trkpt>
      <trkpt lat="48.29622" lon="-4.28192">
        <ele>24.65</ele>
        <time>2013-04-16T08:16:53Z</time>
      </trkpt>
      <trkpt lat="48.29623" lon="-4.28202">
        <ele>24.17</ele>
        <time>2013-04-16T08:17:00Z</time>
      </trkpt>
      <trkpt lat="48.29626" lon="-4.28206">
        <ele>24.17</ele>
        <time>2013-04-16T08:17:04Z</time>
      </trkpt>
      <trkpt lat="48.29631" lon="-4.28207">
        <ele>23.21</ele>
        <time>2013-04-16T08:17:09Z</time>
      </trkpt>
      <trkpt lat="48.2964" lon="-4.28216">
        <ele>22.25</ele>
        <time>2013-04-16T08:17:20Z</time>
      </trkpt>
      <trkpt lat="48.29648" lon="-4.28228">
        <ele>21.77</ele>
        <time>2013-04-16T08:17:36Z</time>
      </trkpt>
      <trkpt lat="48.2965" lon="-4.28241">
        <ele>21.29</ele>
        <time>2013-04-16T08:17:51Z</time>
      </trkpt>
      <trkpt lat="48.29654" lon="-4.28252">
        <ele>22.25</ele>
        <time>2013-04-16T08:18:06Z</time>
      </trkpt>
      <trkpt lat="48.29656" lon="-4.28253">
        <ele>21.77</ele>
        <time>2013-04-16T08:18:22Z</time>
      </trkpt>
      <trkpt lat="48.29664" lon="-4.28283">
        <ele>20.32</ele>
        <time>2013-04-16T08:18:40Z</time>
      </trkpt>
      <trkpt lat="48.29667" lon="-4.28307">
        <ele>19.36</ele>
        <time>2013-04-16T08:18:53Z</time>
      </trkpt>
      <trkpt lat="48.29675" lon="-4.28323">
        <ele>19.36</ele>
        <time>2013-04-16T08:19:09Z</time>
      </trkpt>
      <trkpt lat="48.29672" lon="-4.28336">
        <ele>21.29</ele>
        <time>2013-04-16T08:19:25Z</time>
      </trkpt>
      <trkpt lat="48.29674" lon="-4.28354">
        <ele>21.29</ele>
        <time>2013-04-16T08:19:42Z</time>
      </trkpt>
      <trkpt lat="48.29673" lon="-4.28358">
        <ele>21.77</ele>
        <time>2013-04-16T08:19:45Z</time>
      </trkpt>
      <trkpt lat="48.29671" lon="-4.28367">
        <ele>22.25</ele>
        <time>2013-04-16T08:19:58Z</time>
      </trkpt>
      <trkpt lat="48.29671" lon="-4.28373">
        <ele>22.25</ele>
        <time>2013-04-16T08:20:11Z</time>
      </trkpt>
      <trkpt lat="48.29671" lon="-4.28381">
        <ele>22.73</ele>
        <time>2013-04-16T08:20:16Z</time>
      </trkpt>
      <trkpt lat="48.29667" lon="-4.28397">
        <ele>22.25</ele>
        <time>2013-04-16T08:20:30Z</time>
      </trkpt>
      <trkpt lat="48.29665" lon="-4.28404">
        <ele>21.77</ele>
        <time>2013-04-16T08:20:46Z</time>
      </trkpt>
      <trkpt lat="48.29663" lon="-4.28423">
        <ele>22.25</ele>
        <time>2013-04-16T08:21:02Z</time>
      </trkpt>
      <trkpt lat="48.29664" lon="-4.28432">
        <ele>21.77</ele>
        <time>2013-04-16T08:21:18Z</time>
      </trkpt>
      <trkpt lat="48.29665" lon="-4.2843">
        <ele>22.25</ele>
        <time>2013-04-16T08:21:49Z</time>
      </trkpt>
      <trkpt lat="48.29665" lon="-4.2843">
        <ele>22.25</ele>
        <time>2013-04-16T08:23:01Z</time>
      </trkpt>
      <trkpt lat="48.29666" lon="-4.28431">
        <ele>21.77</ele>
        <time>2013-04-16T08:23:54Z</time>
      </trkpt>
      <trkpt lat="48.29671" lon="-4.28446">
        <ele>21.77</ele>
        <time>2013-04-16T08:24:05Z</time>
      </trkpt>
      <trkpt lat="48.29673" lon="-4.2846">
        <ele>20.81</ele>
        <time>2013-04-16T08:24:18Z</time>
      </trkpt>
      <trkpt lat="48.29675" lon="-4.28466">
        <ele>19.36</ele>
        <time>2013-04-16T08:24:25Z</time>
      </trkpt>
      <trkpt lat="48.29677" lon="-4.28469">
        <ele>18.88</ele>
        <time>2013-04-16T08:24:27Z</time>
      </trkpt>
      <trkpt lat="48.29679" lon="-4.28489">
        <ele>17.92</ele>
        <time>2013-04-16T08:24:41Z</time>
      </trkpt>
      <trkpt lat="48.29678" lon="-4.28511">
        <ele>17.92</ele>
        <time>2013-04-16T08:24:56Z</time>
      </trkpt>
      <trkpt lat="48.29681" lon="-4.28529">
        <ele>18.88</ele>
        <time>2013-04-16T08:25:10Z</time>
      </trkpt>
      <trkpt lat="48.29681" lon="-4.2855">
        <ele>19.36</ele>
        <time>2013-04-16T08:25:25Z</time>
      </trkpt>
      <trkpt lat="48.29687" lon="-4.28576">
        <ele>20.32</ele>
        <time>2013-04-16T08:25:43Z</time>
      </trkpt>
      <trkpt lat="48.29692" lon="-4.28591">
        <ele>21.29</ele>
        <time>2013-04-16T08:25:52Z</time>
      </trkpt>
      <trkpt lat="48.29699" lon="-4.28605">
        <ele>21.29</ele>
        <time>2013-04-16T08:25:58Z</time>
      </trkpt>
      <trkpt lat="48.29705" lon="-4.28635">
        <ele>19.84</ele>
        <time>2013-04-16T08:26:15Z</time>
      </trkpt>
      <trkpt lat="48.29709" lon="-4.28652">
        <ele>18.88</ele>
        <time>2013-04-16T08:26:29Z</time>
      </trkpt>
      <trkpt lat="48.29709" lon="-4.28662">
        <ele>19.36</ele>
        <time>2013-04-16T08:26:34Z</time>
      </trkpt>
      <trkpt lat="48.29712" lon="-4.28674">
        <ele>18.88</ele>
        <time>2013-04-16T08:26:38Z</time>
      </trkpt>
      <trkpt lat="48.29711" lon="-4.2868">
        <ele>18.88</ele>
        <time>2013-04-16T08:26:40Z</time>
      </trkpt>
      <trkpt lat="48.29711" lon="-4.28696">
        <ele>18.4</ele>
        <time>2013-04-16T08:26:50Z</time>
      </trkpt>
      <trkpt lat="48.29716" lon="-4.28719">
        <ele>17.44</ele>
        <time>2013-04-16T08:27:04Z</time>
      </trkpt>
      <trkpt lat="48.29719" lon="-4.28746">
        <ele>16.48</ele>
        <time>2013-04-16T08:27:16Z</time>
      </trkpt>
      <trkpt lat="48.29717" lon="-4.28755">
        <ele>16.48</ele>
        <time>2013-04-16T08:27:31Z</time>
      </trkpt>
      <trkpt lat="48.29717" lon="-4.28764">
        <ele>15.04</ele>
        <time>2013-04-16T08:27:50Z</time>
      </trkpt>
      <trkpt lat="48.29717" lon="-4.28782">
        <ele>14.08</ele>
        <time>2013-04-16T08:28:05Z</time>
      </trkpt>
      <trkpt lat="48.29714" lon="-4.28791">
        <ele>13.12</ele>
        <time>2013-04-16T08:28:22Z</time>
      </trkpt>
      <trkpt lat="48.29715" lon="-4.28792">
        <ele>13.6</ele>
        <time>2013-04-16T08:28:53Z</time>
      </trkpt>
      <trkpt lat="48.29714" lon="-4.28793">
        <ele>13.12</ele>
        <time>2013-04-16T08:30:10Z</time>
      </trkpt>
      <trkpt lat="48.2971" lon="-4.28811">
        <ele>14.08</ele>
        <time>2013-04-16T08:30:31Z</time>
      </trkpt>
      <trkpt lat="48.29709" lon="-4.28813">
        <ele>14.56</ele>
        <time>2013-04-16T08:30:32Z</time>
      </trkpt>
      <trkpt lat="48.29702" lon="-4.28826">
        <ele>15.04</ele>
        <time>2013-04-16T08:30:39Z</time>
      </trkpt>
      <trkpt lat="48.29699" lon="-4.28837">
        <ele>15.04</ele>
        <time>2013-04-16T08:30:44Z</time>
      </trkpt>
      <trkpt lat="48.29695" lon="-4.28846">
        <ele>15.04</ele>
        <time>2013-04-16T08:30:49Z</time>
      </trkpt>
      <trkpt lat="48.29691" lon="-4.28856">
        <ele>16.48</ele>
        <time>2013-04-16T08:30:57Z</time>
      </trkpt>
      <trkpt lat="48.2969" lon="-4.28864">
        <ele>17.44</ele>
        <time>2013-04-16T08:31:02Z</time>
      </trkpt>
      <trkpt lat="48.29692" lon="-4.28887">
        <ele>17.44</ele>
        <time>2013-04-16T08:31:17Z</time>
      </trkpt>
      <trkpt lat="48.29693" lon="-4.289">
        <ele>16.96</ele>
        <time>2013-04-16T08:31:31Z</time>
      </trkpt>
      <trkpt lat="48.29693" lon="-4.28906">
        <ele>16.96</ele>
        <time>2013-04-16T08:31:43Z</time>
      </trkpt>
      <trkpt lat="48.29693" lon="-4.28911">
        <ele>16.48</ele>
        <time>2013-04-16T08:32:22Z</time>
      </trkpt>
      <trkpt lat="48.29692" lon="-4.28913">
        <ele>16.96</ele>
        <time>2013-04-16T08:32:51Z</time>
      </trkpt>
      <trkpt lat="48.29692" lon="-4.28913">
        <ele>16.48</ele>
        <time>2013-04-16T08:33:35Z</time>
      </trkpt>
      <trkpt lat="48.29692" lon="-4.28913">
        <ele>16.48</ele>
        <time>2013-04-16T08:34:31Z</time>
      </trkpt>
      <trkpt lat="48.29691" lon="-4.28914">
        <ele>16.48</ele>
        <time>2013-04-16T08:35:47Z</time>
      </trkpt>
      <trkpt lat="48.29693" lon="-4.28913">
        <ele>16</ele>
        <time>2013-04-16T08:37:01Z</time>
      </trkpt>
      <trkpt lat="48.29695" lon="-4.28909">
        <ele>16.48</ele>
        <time>2013-04-16T08:37:25Z</time>
      </trkpt>
      <trkpt lat="48.29695" lon="-4.28911">
        <ele>16.48</ele>
        <time>2013-04-16T08:37:47Z</time>
      </trkpt>
      <trkpt lat="48.29695" lon="-4.28918">
        <ele>16.48</ele>
        <time>2013-04-16T08:38:07Z</time>
      </trkpt>
      <trkpt lat="48.29694" lon="-4.28927">
        <ele>16</ele>
        <time>2013-04-16T08:38:22Z</time>
      </trkpt>
      <trkpt lat="48.29694" lon="-4.28942">
        <ele>15.52</ele>
        <time>2013-04-16T08:38:37Z</time>
      </trkpt>
      <trkpt lat="48.29694" lon="-4.28944">
        <ele>15.52</ele>
        <time>2013-04-16T08:38:39Z</time>
      </trkpt>
      <trkpt lat="48.29694" lon="-4.28958">
        <ele>15.52</ele>
        <time>2013-04-16T08:38:53Z</time>
      </trkpt>
      <trkpt lat="48.29693" lon="-4.28975">
        <ele>15.52</ele>
        <time>2013-04-16T08:39:06Z</time>
      </trkpt>
      <trkpt lat="48.29692" lon="-4.28987">
        <ele>15.04</ele>
        <time>2013-04-16T08:39:22Z</time>
      </trkpt>
      <trkpt lat="48.2969" lon="-4.28991">
        <ele>15.04</ele>
        <time>2013-04-16T08:39:38Z</time>
      </trkpt>
      <trkpt lat="48.29692" lon="-4.29001">
        <ele>15.04</ele>
        <time>2013-04-16T08:39:54Z</time>
      </trkpt>
      <trkpt lat="48.29692" lon="-4.29004">
        <ele>15.04</ele>
        <time>2013-04-16T08:40:29Z</time>
      </trkpt>
      <trkpt lat="48.2969" lon="-4.29012">
        <ele>15.52</ele>
        <time>2013-04-16T08:40:59Z</time>
      </trkpt>
      <trkpt lat="48.29691" lon="-4.29021">
        <ele>16</ele>
        <time>2013-04-16T08:41:05Z</time>
      </trkpt>
      <trkpt lat="48.29691" lon="-4.29044">
        <ele>15.52</ele>
        <time>2013-04-16T08:41:19Z</time>
      </trkpt>
      <trkpt lat="48.29689" lon="-4.2906">
        <ele>15.52</ele>
        <time>2013-04-16T08:41:32Z</time>
      </trkpt>
      <trkpt lat="48.29691" lon="-4.29068">
        <ele>15.52</ele>
        <time>2013-04-16T08:41:36Z</time>
      </trkpt>
      <trkpt lat="48.2969" lon="-4.29073">
        <ele>15.04</ele>
        <time>2013-04-16T08:41:40Z</time>
      </trkpt>
      <trkpt lat="48.2969" lon="-4.29086">
        <ele>15.04</ele>
        <time>2013-04-16T08:41:50Z</time>
      </trkpt>
      <trkpt lat="48.2969" lon="-4.29112">
        <ele>13.6</ele>
        <time>2013-04-16T08:42:05Z</time>
      </trkpt>
      <trkpt lat="48.29689" lon="-4.29135">
        <ele>13.6</ele>
        <time>2013-04-16T08:42:19Z</time>
      </trkpt>
      <trkpt lat="48.29687" lon="-4.29158">
        <ele>13.6</ele>
        <time>2013-04-16T08:42:33Z</time>
      </trkpt>
      <trkpt lat="48.29687" lon="-4.29161">
        <ele>13.6</ele>
        <time>2013-04-16T08:42:41Z</time>
      </trkpt>
      <trkpt lat="48.29686" lon="-4.29176">
        <ele>13.6</ele>
        <time>2013-04-16T08:42:50Z</time>
      </trkpt>
      <trkpt lat="48.29686" lon="-4.29201">
        <ele>13.6</ele>
        <time>2013-04-16T08:43:01Z</time>
      </trkpt>
      <trkpt lat="48.29686" lon="-4.29206">
        <ele>13.6</ele>
        <time>2013-04-16T08:43:07Z</time>
      </trkpt>
      <trkpt lat="48.29685" lon="-4.29216">
        <ele>14.08</ele>
        <time>2013-04-16T08:43:12Z</time>
      </trkpt>
      <trkpt lat="48.29683" lon="-4.29237">
        <ele>13.6</ele>
        <time>2013-04-16T08:43:26Z</time>
      </trkpt>
      <trkpt lat="48.29682" lon="-4.29264">
        <ele>12.63</ele>
        <time>2013-04-16T08:43:43Z</time>
      </trkpt>
      <trkpt lat="48.29683" lon="-4.29269">
        <ele>10.71</ele>
        <time>2013-04-16T08:43:58Z</time>
      </trkpt>
      <trkpt lat="48.29689" lon="-4.29282">
        <ele>11.19</ele>
        <time>2013-04-16T08:44:08Z</time>
      </trkpt>
      <trkpt lat="48.297" lon="-4.29311">
        <ele>10.71</ele>
        <time>2013-04-16T08:44:22Z</time>
      </trkpt>
      <trkpt lat="48.29705" lon="-4.29323">
        <ele>11.67</ele>
        <time>2013-04-16T08:44:29Z</time>
      </trkpt>
      <trkpt lat="48.2971" lon="-4.2934">
        <ele>12.15</ele>
        <time>2013-04-16T08:44:38Z</time>
      </trkpt>
      <trkpt lat="48.29713" lon="-4.29352">
        <ele>11.19</ele>
        <time>2013-04-16T08:44:45Z</time>
      </trkpt>
      <trkpt lat="48.29717" lon="-4.29376">
        <ele>10.71</ele>
        <time>2013-04-16T08:44:59Z</time>
      </trkpt>
      <trkpt lat="48.29724" lon="-4.294">
        <ele>11.19</ele>
        <time>2013-04-16T08:45:13Z</time>
      </trkpt>
      <trkpt lat="48.2973" lon="-4.29422">
        <ele>10.71</ele>
        <time>2013-04-16T08:45:29Z</time>
      </trkpt>
      <trkpt lat="48.29734" lon="-4.2944">
        <ele>10.23</ele>
        <time>2013-04-16T08:45:43Z</time>
      </trkpt>
      <trkpt lat="48.29736" lon="-4.29449">
        <ele>10.23</ele>
        <time>2013-04-16T08:45:49Z</time>
      </trkpt>
      <trkpt lat="48.29739" lon="-4.29458">
        <ele>10.23</ele>
        <time>2013-04-16T08:45:56Z</time>
      </trkpt>
      <trkpt lat="48.29744" lon="-4.29476">
        <ele>10.23</ele>
        <time>2013-04-16T08:46:09Z</time>
      </trkpt>
      <trkpt lat="48.29746" lon="-4.295">
        <ele>9.27</ele>
        <time>2013-04-16T08:46:25Z</time>
      </trkpt>
      <trkpt lat="48.29748" lon="-4.29506">
        <ele>9.27</ele>
        <time>2013-04-16T08:46:29Z</time>
      </trkpt>
      <trkpt lat="48.2975" lon="-4.29526">
        <ele>9.27</ele>
        <time>2013-04-16T08:46:43Z</time>
      </trkpt>
      <trkpt lat="48.29753" lon="-4.29547">
        <ele>9.27</ele>
        <time>2013-04-16T08:46:56Z</time>
      </trkpt>
      <trkpt lat="48.29756" lon="-4.29571">
        <ele>9.27</ele>
        <time>2013-04-16T08:47:12Z</time>
      </trkpt>
      <trkpt lat="48.29759" lon="-4.29592">
        <ele>7.83</ele>
        <time>2013-04-16T08:47:26Z</time>
      </trkpt>
      <trkpt lat="48.29757" lon="-4.29616">
        <ele>5.91</ele>
        <time>2013-04-16T08:47:41Z</time>
      </trkpt>
      <trkpt lat="48.29753" lon="-4.2963">
        <ele>5.42</ele>
        <time>2013-04-16T08:47:50Z</time>
      </trkpt>
      <trkpt lat="48.29755" lon="-4.29654">
        <ele>5.42</ele>
        <time>2013-04-16T08:48:03Z</time>
      </trkpt>
      <trkpt lat="48.29756" lon="-4.29664">
        <ele>4.94</ele>
        <time>2013-04-16T08:48:19Z</time>
      </trkpt>
      <trkpt lat="48.29756" lon="-4.29679">
        <ele>5.91</ele>
        <time>2013-04-16T08:48:54Z</time>
      </trkpt>
      <trkpt lat="48.29756" lon="-4.29694">
        <ele>7.35</ele>
        <time>2013-04-16T08:49:11Z</time>
      </trkpt>
      <trkpt lat="48.29757" lon="-4.29723">
        <ele>7.83</ele>
        <time>2013-04-16T08:49:26Z</time>
      </trkpt>
      <trkpt lat="48.29759" lon="-4.2975">
        <ele>8.31</ele>
        <time>2013-04-16T08:49:39Z</time>
      </trkpt>
      <trkpt lat="48.29758" lon="-4.29777">
        <ele>8.79</ele>
        <time>2013-04-16T08:49:55Z</time>
      </trkpt>
      <trkpt lat="48.29757" lon="-4.29808">
        <ele>8.79</ele>
        <time>2013-04-16T08:50:11Z</time>
      </trkpt>
      <trkpt lat="48.29756" lon="-4.29835">
        <ele>9.27</ele>
        <time>2013-04-16T08:50:27Z</time>
      </trkpt>
      <trkpt lat="48.29756" lon="-4.29852">
        <ele>9.27</ele>
        <time>2013-04-16T08:50:41Z</time>
      </trkpt>
      <trkpt lat="48.29755" lon="-4.29871">
        <ele>9.27</ele>
        <time>2013-04-16T08:50:59Z</time>
      </trkpt>
      <trkpt lat="48.29754" lon="-4.29888">
        <ele>9.27</ele>
        <time>2013-04-16T08:51:18Z</time>
      </trkpt>
      <trkpt lat="48.29755" lon="-4.29913">
        <ele>9.27</ele>
        <time>2013-04-16T08:51:33Z</time>
      </trkpt>
      <trkpt lat="48.29756" lon="-4.29936">
        <ele>9.75</ele>
        <time>2013-04-16T08:51:48Z</time>
      </trkpt>
      <trkpt lat="48.29756" lon="-4.29938">
        <ele>9.75</ele>
        <time>2013-04-16T08:51:54Z</time>
      </trkpt>
      <trkpt lat="48.29757" lon="-4.29965">
        <ele>9.75</ele>
        <time>2013-04-16T08:52:12Z</time>
      </trkpt>
      <trkpt lat="48.29755" lon="-4.29989">
        <ele>9.75</ele>
        <time>2013-04-16T08:52:27Z</time>
      </trkpt>
      <trkpt lat="48.29754" lon="-4.29997">
        <ele>9.75</ele>
        <time>2013-04-16T08:52:37Z</time>
      </trkpt>
      <trkpt lat="48.29755" lon="-4.30015">
        <ele>10.71</ele>
        <time>2013-04-16T08:52:51Z</time>
      </trkpt>
      <trkpt lat="48.29756" lon="-4.30031">
        <ele>11.19</ele>
        <time>2013-04-16T08:53:00Z</time>
      </trkpt>
      <trkpt lat="48.29755" lon="-4.30057">
        <ele>11.67</ele>
        <time>2013-04-16T08:53:14Z</time>
      </trkpt>
      <trkpt lat="48.29754" lon="-4.30064">
        <ele>11.67</ele>
        <time>2013-04-16T08:53:17Z</time>
      </trkpt>
      <trkpt lat="48.29754" lon="-4.30068">
        <ele>11.67</ele>
        <time>2013-04-16T08:53:19Z</time>
      </trkpt>
      <trkpt lat="48.29751" lon="-4.30075">
        <ele>11.67</ele>
        <time>2013-04-16T08:53:23Z</time>
      </trkpt>
      <trkpt lat="48.29751" lon="-4.3008">
        <ele>11.67</ele>
        <time>2013-04-16T08:53:26Z</time>
      </trkpt>
      <trkpt lat="48.2975" lon="-4.30106">
        <ele>11.19</ele>
        <time>2013-04-16T08:53:42Z</time>
      </trkpt>
      <trkpt lat="48.29746" lon="-4.30126">
        <ele>11.19</ele>
        <time>2013-04-16T08:53:54Z</time>
      </trkpt>
      <trkpt lat="48.29747" lon="-4.30131">
        <ele>10.71</ele>
        <time>2013-04-16T08:53:57Z</time>
      </trkpt>
      <trkpt lat="48.29744" lon="-4.30154">
        <ele>10.23</ele>
        <time>2013-04-16T08:54:12Z</time>
      </trkpt>
      <trkpt lat="48.2974" lon="-4.30182">
        <ele>10.23</ele>
        <time>2013-04-16T08:54:28Z</time>
      </trkpt>
      <trkpt lat="48.2974" lon="-4.30184">
        <ele>10.71</ele>
        <time>2013-04-16T08:54:29Z</time>
      </trkpt>
      <trkpt lat="48.2974" lon="-4.30194">
        <ele>10.23</ele>
        <time>2013-04-16T08:54:35Z</time>
      </trkpt>
      <trkpt lat="48.29739" lon="-4.30198">
        <ele>10.23</ele>
        <time>2013-04-16T08:54:38Z</time>
      </trkpt>
      <trkpt lat="48.29741" lon="-4.30217">
        <ele>10.71</ele>
        <time>2013-04-16T08:54:51Z</time>
      </trkpt>
      <trkpt lat="48.29739" lon="-4.30244">
        <ele>11.19</ele>
        <time>2013-04-16T08:55:04Z</time>
      </trkpt>
      <trkpt lat="48.29739" lon="-4.3026">
        <ele>11.19</ele>
        <time>2013-04-16T08:55:18Z</time>
      </trkpt>
      <trkpt lat="48.29737" lon="-4.30277">
        <ele>11.19</ele>
        <time>2013-04-16T08:55:33Z</time>
      </trkpt>
      <trkpt lat="48.29737" lon="-4.30286">
        <ele>11.19</ele>
        <time>2013-04-16T08:55:46Z</time>
      </trkpt>
      <trkpt lat="48.29737" lon="-4.3029">
        <ele>10.71</ele>
        <time>2013-04-16T08:56:18Z</time>
      </trkpt>
      <trkpt lat="48.29737" lon="-4.30295">
        <ele>11.19</ele>
        <time>2013-04-16T08:56:41Z</time>
      </trkpt>
      <trkpt lat="48.29735" lon="-4.30306">
        <ele>10.71</ele>
        <time>2013-04-16T08:56:57Z</time>
      </trkpt>
      <trkpt lat="48.29735" lon="-4.30308">
        <ele>10.71</ele>
        <time>2013-04-16T08:57:05Z</time>
      </trkpt>
      <trkpt lat="48.29735" lon="-4.30327">
        <ele>10.71</ele>
        <time>2013-04-16T08:57:18Z</time>
      </trkpt>
      <trkpt lat="48.29735" lon="-4.30349">
        <ele>11.19</ele>
        <time>2013-04-16T08:57:34Z</time>
      </trkpt>
      <trkpt lat="48.29734" lon="-4.30357">
        <ele>10.71</ele>
        <time>2013-04-16T08:57:49Z</time>
      </trkpt>
      <trkpt lat="48.29735" lon="-4.3037">
        <ele>10.71</ele>
        <time>2013-04-16T08:58:22Z</time>
      </trkpt>
      <trkpt lat="48.29733" lon="-4.30381">
        <ele>11.67</ele>
        <time>2013-04-16T08:58:37Z</time>
      </trkpt>
      <trkpt lat="48.29732" lon="-4.30397">
        <ele>11.19</ele>
        <time>2013-04-16T08:58:49Z</time>
      </trkpt>
      <trkpt lat="48.29733" lon="-4.3041">
        <ele>11.19</ele>
        <time>2013-04-16T08:59:08Z</time>
      </trkpt>
      <trkpt lat="48.29732" lon="-4.30429">
        <ele>11.67</ele>
        <time>2013-04-16T08:59:25Z</time>
      </trkpt>
      <trkpt lat="48.29732" lon="-4.30444">
        <ele>11.67</ele>
        <time>2013-04-16T08:59:45Z</time>
      </trkpt>
      <trkpt lat="48.29732" lon="-4.30452">
        <ele>11.67</ele>
        <time>2013-04-16T08:59:50Z</time>
      </trkpt>
      <trkpt lat="48.2973" lon="-4.30481">
        <ele>11.67</ele>
        <time>2013-04-16T09:00:06Z</time>
      </trkpt>
      <trkpt lat="48.29729" lon="-4.30501">
        <ele>11.67</ele>
        <time>2013-04-16T09:00:19Z</time>
      </trkpt>
      <trkpt lat="48.29728" lon="-4.30524">
        <ele>12.63</ele>
        <time>2013-04-16T09:00:33Z</time>
      </trkpt>
      <trkpt lat="48.29728" lon="-4.30537">
        <ele>12.15</ele>
        <time>2013-04-16T09:00:41Z</time>
      </trkpt>
      <trkpt lat="48.2973" lon="-4.30559">
        <ele>12.63</ele>
        <time>2013-04-16T09:00:55Z</time>
      </trkpt>
      <trkpt lat="48.29727" lon="-4.30573">
        <ele>14.08</ele>
        <time>2013-04-16T09:01:07Z</time>
      </trkpt>
      <trkpt lat="48.29724" lon="-4.30591">
        <ele>17.44</ele>
        <time>2013-04-16T09:01:22Z</time>
      </trkpt>
      <trkpt lat="48.2972" lon="-4.3061">
        <ele>18.88</ele>
        <time>2013-04-16T09:01:36Z</time>
      </trkpt>
      <trkpt lat="48.2972" lon="-4.30611">
        <ele>19.36</ele>
        <time>2013-04-16T09:01:37Z</time>
      </trkpt>
      <trkpt lat="48.29718" lon="-4.30614">
        <ele>19.84</ele>
        <time>2013-04-16T09:01:40Z</time>
      </trkpt>
      <trkpt lat="48.29711" lon="-4.30627">
        <ele>22.25</ele>
        <time>2013-04-16T09:01:56Z</time>
      </trkpt>
      <trkpt lat="48.29704" lon="-4.30643">
        <ele>23.69</ele>
        <time>2013-04-16T09:02:12Z</time>
      </trkpt>
      <trkpt lat="48.297" lon="-4.30659">
        <ele>25.13</ele>
        <time>2013-04-16T09:02:27Z</time>
      </trkpt>
      <trkpt lat="48.29691" lon="-4.30676">
        <ele>26.09</ele>
        <time>2013-04-16T09:02:42Z</time>
      </trkpt>
      <trkpt lat="48.29686" lon="-4.30681">
        <ele>26.09</ele>
        <time>2013-04-16T09:02:48Z</time>
      </trkpt>
      <trkpt lat="48.29679" lon="-4.30696">
        <ele>28.02</ele>
        <time>2013-04-16T09:03:02Z</time>
      </trkpt>
      <trkpt lat="48.29678" lon="-4.30699">
        <ele>28.02</ele>
        <time>2013-04-16T09:03:04Z</time>
      </trkpt>
      <trkpt lat="48.29673" lon="-4.30714">
        <ele>26.57</ele>
        <time>2013-04-16T09:03:16Z</time>
      </trkpt>
      <trkpt lat="48.2967" lon="-4.30731">
        <ele>28.02</ele>
        <time>2013-04-16T09:03:25Z</time>
      </trkpt>
      <trkpt lat="48.29668" lon="-4.30735">
        <ele>28.98</ele>
        <time>2013-04-16T09:03:28Z</time>
      </trkpt>
      <trkpt lat="48.29662" lon="-4.30754">
        <ele>28.5</ele>
        <time>2013-04-16T09:03:44Z</time>
      </trkpt>
      <trkpt lat="48.29655" lon="-4.30779">
        <ele>27.53</ele>
        <time>2013-04-16T09:04:01Z</time>
      </trkpt>
      <trkpt lat="48.29653" lon="-4.30789">
        <ele>27.53</ele>
        <time>2013-04-16T09:04:18Z</time>
      </trkpt>
      <trkpt lat="48.29646" lon="-4.30815">
        <ele>27.05</ele>
        <time>2013-04-16T09:04:34Z</time>
      </trkpt>
      <trkpt lat="48.29644" lon="-4.30827">
        <ele>26.57</ele>
        <time>2013-04-16T09:04:42Z</time>
      </trkpt>
      <trkpt lat="48.29637" lon="-4.30849">
        <ele>26.57</ele>
        <time>2013-04-16T09:04:59Z</time>
      </trkpt>
      <trkpt lat="48.29636" lon="-4.30868">
        <ele>26.09</ele>
        <time>2013-04-16T09:05:16Z</time>
      </trkpt>
      <trkpt lat="48.29627" lon="-4.30893">
        <ele>24.65</ele>
        <time>2013-04-16T09:05:32Z</time>
      </trkpt>
      <trkpt lat="48.29621" lon="-4.30913">
        <ele>23.69</ele>
        <time>2013-04-16T09:05:47Z</time>
      </trkpt>
      <trkpt lat="48.29617" lon="-4.30939">
        <ele>22.25</ele>
        <time>2013-04-16T09:06:00Z</time>
      </trkpt>
      <trkpt lat="48.2961" lon="-4.30963">
        <ele>22.25</ele>
        <time>2013-04-16T09:06:14Z</time>
      </trkpt>
      <trkpt lat="48.29603" lon="-4.30984">
        <ele>21.29</ele>
        <time>2013-04-16T09:06:29Z</time>
      </trkpt>
      <trkpt lat="48.296" lon="-4.31005">
        <ele>21.29</ele>
        <time>2013-04-16T09:06:41Z</time>
      </trkpt>
      <trkpt lat="48.29593" lon="-4.31027">
        <ele>19.84</ele>
        <time>2013-04-16T09:06:56Z</time>
      </trkpt>
      <trkpt lat="48.2959" lon="-4.31035">
        <ele>19.36</ele>
        <time>2013-04-16T09:07:02Z</time>
      </trkpt>
      <trkpt lat="48.29583" lon="-4.31061">
        <ele>19.36</ele>
        <time>2013-04-16T09:07:21Z</time>
      </trkpt>
      <trkpt lat="48.29574" lon="-4.31081">
        <ele>18.4</ele>
        <time>2013-04-16T09:07:36Z</time>
      </trkpt>
      <trkpt lat="48.2957" lon="-4.3109">
        <ele>18.4</ele>
        <time>2013-04-16T09:07:43Z</time>
      </trkpt>
      <trkpt lat="48.29567" lon="-4.31096">
        <ele>17.92</ele>
        <time>2013-04-16T09:07:47Z</time>
      </trkpt>
      <trkpt lat="48.29557" lon="-4.31118">
        <ele>17.44</ele>
        <time>2013-04-16T09:08:05Z</time>
      </trkpt>
      <trkpt lat="48.2955" lon="-4.31138">
        <ele>17.92</ele>
        <time>2013-04-16T09:08:20Z</time>
      </trkpt>
      <trkpt lat="48.29549" lon="-4.31144">
        <ele>12.15</ele>
        <time>2013-04-16T09:08:38Z</time>
      </trkpt>
      <trkpt lat="48.29549" lon="-4.31144">
        <ele>17.44</ele>
        <time>2013-04-16T09:08:39Z</time>
      </trkpt>
      <trkpt lat="48.29549" lon="-4.31144">
        <ele>17.44</ele>
        <time>2013-04-16T09:08:44Z</time>
      </trkpt>
      <trkpt lat="48.29543" lon="-4.31161">
        <ele>16.96</ele>
        <time>2013-04-16T09:09:04Z</time>
      </trkpt>
      <trkpt lat="48.29537" lon="-4.3117">
        <ele>16.96</ele>
        <time>2013-04-16T09:09:21Z</time>
      </trkpt>
      <trkpt lat="48.29533" lon="-4.31186">
        <ele>16.96</ele>
        <time>2013-04-16T09:09:35Z</time>
      </trkpt>
      <trkpt lat="48.29529" lon="-4.31193">
        <ele>22.73</ele>
        <time>2013-04-16T09:09:41Z</time>
      </trkpt>
      <trkpt lat="48.29528" lon="-4.31194">
        <ele>19.36</ele>
        <time>2013-04-16T09:09:42Z</time>
      </trkpt>
      <trkpt lat="48.29527" lon="-4.31197">
        <ele>17.92</ele>
        <time>2013-04-16T09:09:44Z</time>
      </trkpt>
      <trkpt lat="48.29526" lon="-4.31198">
        <ele>13.12</ele>
        <time>2013-04-16T09:09:46Z</time>
      </trkpt>
      <trkpt lat="48.29526" lon="-4.312">
        <ele>18.4</ele>
        <time>2013-04-16T09:09:48Z</time>
      </trkpt>
      <trkpt lat="48.29525" lon="-4.31202">
        <ele>17.92</ele>
        <time>2013-04-16T09:09:49Z</time>
      </trkpt>
      <trkpt lat="48.29516" lon="-4.31223">
        <ele>18.4</ele>
        <time>2013-04-16T09:10:04Z</time>
      </trkpt>
      <trkpt lat="48.29513" lon="-4.31231">
        <ele>18.88</ele>
        <time>2013-04-16T09:10:09Z</time>
      </trkpt>
      <trkpt lat="48.29504" lon="-4.31247">
        <ele>24.65</ele>
        <time>2013-04-16T09:10:21Z</time>
      </trkpt>
      <trkpt lat="48.29504" lon="-4.31248">
        <ele>13.12</ele>
        <time>2013-04-16T09:10:22Z</time>
      </trkpt>
      <trkpt lat="48.29504" lon="-4.3125">
        <ele>19.36</ele>
        <time>2013-04-16T09:10:23Z</time>
      </trkpt>
      <trkpt lat="48.29496" lon="-4.31263">
        <ele>20.81</ele>
        <time>2013-04-16T09:10:43Z</time>
      </trkpt>
      <trkpt lat="48.29483" lon="-4.31284">
        <ele>22.25</ele>
        <time>2013-04-16T09:10:58Z</time>
      </trkpt>
      <trkpt lat="48.29477" lon="-4.31293">
        <ele>23.21</ele>
        <time>2013-04-16T09:11:14Z</time>
      </trkpt>
      <trkpt lat="48.29477" lon="-4.31293">
        <ele>23.69</ele>
        <time>2013-04-16T09:12:27Z</time>
      </trkpt>
      <trkpt lat="48.29477" lon="-4.31295">
        <ele>22.73</ele>
        <time>2013-04-16T09:13:16Z</time>
      </trkpt>
      <trkpt lat="48.29486" lon="-4.3128">
        <ele>22.73</ele>
        <time>2013-04-16T09:13:33Z</time>
      </trkpt>
      <trkpt lat="48.29488" lon="-4.31276">
        <ele>22.25</ele>
        <time>2013-04-16T09:13:55Z</time>
      </trkpt>
      <trkpt lat="48.29489" lon="-4.31274">
        <ele>22.25</ele>
        <time>2013-04-16T09:14:30Z</time>
      </trkpt>
      <trkpt lat="48.29489" lon="-4.31273">
        <ele>22.25</ele>
        <time>2013-04-16T09:14:55Z</time>
      </trkpt>
      <trkpt lat="48.29489" lon="-4.31273">
        <ele>19.36</ele>
        <time>2013-04-16T09:15:06Z</time>
      </trkpt>
      <trkpt lat="48.29489" lon="-4.31273">
        <ele>21.77</ele>
        <time>2013-04-16T09:15:09Z</time>
      </trkpt>
      <trkpt lat="48.29497" lon="-4.31259">
        <ele>21.77</ele>
        <time>2013-04-16T09:15:32Z</time>
      </trkpt>
      <trkpt lat="48.29504" lon="-4.31248">
        <ele>21.77</ele>
        <time>2013-04-16T09:15:49Z</time>
      </trkpt>
      <trkpt lat="48.29508" lon="-4.31241">
        <ele>21.29</ele>
        <time>2013-04-16T09:16:06Z</time>
      </trkpt>
      <trkpt lat="48.29511" lon="-4.31236">
        <ele>21.29</ele>
        <time>2013-04-16T09:16:13Z</time>
      </trkpt>
      <trkpt lat="48.29517" lon="-4.31219">
        <ele>20.32</ele>
        <time>2013-04-16T09:16:27Z</time>
      </trkpt>
      <trkpt lat="48.29526" lon="-4.312">
        <ele>19.84</ele>
        <time>2013-04-16T09:16:58Z</time>
      </trkpt>
      <trkpt lat="48.29535" lon="-4.31175">
        <ele>19.84</ele>
        <time>2013-04-16T09:17:18Z</time>
      </trkpt>
      <trkpt lat="48.29535" lon="-4.31174">
        <ele>19.84</ele>
        <time>2013-04-16T09:17:55Z</time>
      </trkpt>
      <trkpt lat="48.29531" lon="-4.31169">
        <ele>21.77</ele>
        <time>2013-04-16T09:18:20Z</time>
      </trkpt>
      <trkpt lat="48.29528" lon="-4.31166">
        <ele>24.17</ele>
        <time>2013-04-16T09:18:39Z</time>
      </trkpt>
      <trkpt lat="48.29521" lon="-4.31162">
        <ele>26.09</ele>
        <time>2013-04-16T09:18:57Z</time>
      </trkpt>
      <trkpt lat="48.2952" lon="-4.31161">
        <ele>27.53</ele>
        <time>2013-04-16T09:19:25Z</time>
      </trkpt>
      <trkpt lat="48.29519" lon="-4.31161">
        <ele>29.94</ele>
        <time>2013-04-16T09:19:49Z</time>
      </trkpt>
      <trkpt lat="48.29515" lon="-4.31159">
        <ele>33.3</ele>
        <time>2013-04-16T09:20:18Z</time>
      </trkpt>
      <trkpt lat="48.29507" lon="-4.31156">
        <ele>35.23</ele>
        <time>2013-04-16T09:20:37Z</time>
      </trkpt>
      <trkpt lat="48.295" lon="-4.31152">
        <ele>37.63</ele>
        <time>2013-04-16T09:21:00Z</time>
      </trkpt>
      <trkpt lat="48.29495" lon="-4.3115">
        <ele>40.03</ele>
        <time>2013-04-16T09:21:25Z</time>
      </trkpt>
      <trkpt lat="48.29494" lon="-4.3115">
        <ele>40.99</ele>
        <time>2013-04-16T09:21:48Z</time>
      </trkpt>
      <trkpt lat="48.29493" lon="-4.31149">
        <ele>41.95</ele>
        <time>2013-04-16T09:22:57Z</time>
      </trkpt>
      <trkpt lat="48.29488" lon="-4.31148">
        <ele>44.36</ele>
        <time>2013-04-16T09:23:23Z</time>
      </trkpt>
      <trkpt lat="48.29486" lon="-4.31147">
        <ele>44.84</ele>
        <time>2013-04-16T09:23:50Z</time>
      </trkpt>
      <trkpt lat="48.29484" lon="-4.31144">
        <ele>44.36</ele>
        <time>2013-04-16T09:24:24Z</time>
      </trkpt>
      <trkpt lat="48.29482" lon="-4.31143">
        <ele>43.88</ele>
        <time>2013-04-16T09:25:07Z</time>
      </trkpt>
      <trkpt lat="48.29477" lon="-4.31137">
        <ele>46.76</ele>
        <time>2013-04-16T09:25:39Z</time>
      </trkpt>
      <trkpt lat="48.29471" lon="-4.31132">
        <ele>49.16</ele>
        <time>2013-04-16T09:25:57Z</time>
      </trkpt>
      <trkpt lat="48.29464" lon="-4.31131">
        <ele>50.61</ele>
        <time>2013-04-16T09:26:14Z</time>
      </trkpt>
      <trkpt lat="48.29464" lon="-4.31131">
        <ele>53.49</ele>
        <time>2013-04-16T09:26:32Z</time>
      </trkpt>
      <trkpt lat="48.29462" lon="-4.3113">
        <ele>56.86</ele>
        <time>2013-04-16T09:26:52Z</time>
      </trkpt>
      <trkpt lat="48.29462" lon="-4.31131">
        <ele>57.82</ele>
        <time>2013-04-16T09:27:54Z</time>
      </trkpt>
      <trkpt lat="48.29456" lon="-4.31128">
        <ele>58.78</ele>
        <time>2013-04-16T09:28:25Z</time>
      </trkpt>
      <trkpt lat="48.29446" lon="-4.3112">
        <ele>61.18</ele>
        <time>2013-04-16T09:28:43Z</time>
      </trkpt>
      <trkpt lat="48.29446" lon="-4.31121">
        <ele>60.7</ele>
        <time>2013-04-16T09:29:56Z</time>
      </trkpt>
      <trkpt lat="48.29446" lon="-4.31121">
        <ele>61.18</ele>
        <time>2013-04-16T09:30:34Z</time>
      </trkpt>
      <trkpt lat="48.29443" lon="-4.31122">
        <ele>60.22</ele>
        <time>2013-04-16T09:31:13Z</time>
      </trkpt>
      <trkpt lat="48.29443" lon="-4.31122">
        <ele>60.7</ele>
        <time>2013-04-16T09:31:49Z</time>
      </trkpt>
      <trkpt lat="48.29443" lon="-4.31123">
        <ele>60.22</ele>
        <time>2013-04-16T09:32:21Z</time>
      </trkpt>
      <trkpt lat="48.29444" lon="-4.31121">
        <ele>61.66</ele>
        <time>2013-04-16T09:33:30Z</time>
      </trkpt>
      <trkpt lat="48.29443" lon="-4.31121">
        <ele>63.1</ele>
        <time>2013-04-16T09:34:00Z</time>
      </trkpt>
      <trkpt lat="48.29442" lon="-4.3112">
        <ele>63.58</ele>
        <time>2013-04-16T09:34:31Z</time>
      </trkpt>
      <trkpt lat="48.29441" lon="-4.31119">
        <ele>63.58</ele>
        <time>2013-04-16T09:35:12Z</time>
      </trkpt>
      <trkpt lat="48.29437" lon="-4.31116">
        <ele>66.95</ele>
        <time>2013-04-16T09:35:46Z</time>
      </trkpt>
      <trkpt lat="48.29436" lon="-4.31117">
        <ele>67.43</ele>
        <time>2013-04-16T09:36:39Z</time>
      </trkpt>
      <trkpt lat="48.29431" lon="-4.31112">
        <ele>69.83</ele>
        <time>2013-04-16T09:37:09Z</time>
      </trkpt>
      <trkpt lat="48.2943" lon="-4.31112">
        <ele>71.27</ele>
        <time>2013-04-16T09:37:13Z</time>
      </trkpt>
      <trkpt lat="48.29428" lon="-4.3111">
        <ele>72.24</ele>
        <time>2013-04-16T09:37:27Z</time>
      </trkpt>
      <trkpt lat="48.29426" lon="-4.31108">
        <ele>75.12</ele>
        <time>2013-04-16T09:37:52Z</time>
      </trkpt>
      <trkpt lat="48.29417" lon="-4.31105">
        <ele>78</ele>
        <time>2013-04-16T09:38:10Z</time>
      </trkpt>
      <trkpt lat="48.29412" lon="-4.31102">
        <ele>78.48</ele>
        <time>2013-04-16T09:38:34Z</time>
      </trkpt>
      <trkpt lat="48.29396" lon="-4.31092">
        <ele>80.89</ele>
        <time>2013-04-16T09:38:53Z</time>
      </trkpt>
      <trkpt lat="48.29378" lon="-4.31079">
        <ele>83.77</ele>
        <time>2013-04-16T09:39:11Z</time>
      </trkpt>
      <trkpt lat="48.29369" lon="-4.31074">
        <ele>84.73</ele>
        <time>2013-04-16T09:39:24Z</time>
      </trkpt>
      <trkpt lat="48.29357" lon="-4.31066">
        <ele>86.66</ele>
        <time>2013-04-16T09:39:40Z</time>
      </trkpt>
      <trkpt lat="48.29341" lon="-4.31058">
        <ele>86.66</ele>
        <time>2013-04-16T09:39:55Z</time>
      </trkpt>
      <trkpt lat="48.29335" lon="-4.31057">
        <ele>87.14</ele>
        <time>2013-04-16T09:40:09Z</time>
      </trkpt>
      <trkpt lat="48.29335" lon="-4.31057">
        <ele>87.14</ele>
        <time>2013-04-16T09:41:31Z</time>
      </trkpt>
      <trkpt lat="48.29335" lon="-4.31057">
        <ele>87.62</ele>
        <time>2013-04-16T09:44:39Z</time>
      </trkpt>
      <trkpt lat="48.29332" lon="-4.31056">
        <ele>87.62</ele>
        <time>2013-04-16T09:45:24Z</time>
      </trkpt>
      <trkpt lat="48.29326" lon="-4.31054">
        <ele>87.14</ele>
        <time>2013-04-16T09:45:54Z</time>
      </trkpt>
      <trkpt lat="48.29311" lon="-4.31044">
        <ele>87.62</ele>
        <time>2013-04-16T09:46:07Z</time>
      </trkpt>
      <trkpt lat="48.29297" lon="-4.31037">
        <ele>88.58</ele>
        <time>2013-04-16T09:46:24Z</time>
      </trkpt>
      <trkpt lat="48.29285" lon="-4.31033">
        <ele>88.58</ele>
        <time>2013-04-16T09:46:39Z</time>
      </trkpt>
      <trkpt lat="48.2927" lon="-4.31026">
        <ele>89.06</ele>
        <time>2013-04-16T09:46:54Z</time>
      </trkpt>
      <trkpt lat="48.29262" lon="-4.31019">
        <ele>88.58</ele>
        <time>2013-04-16T09:47:04Z</time>
      </trkpt>
      <trkpt lat="48.29252" lon="-4.31023">
        <ele>89.54</ele>
        <time>2013-04-16T09:47:13Z</time>
      </trkpt>
      <trkpt lat="48.29242" lon="-4.31042">
        <ele>90.02</ele>
        <time>2013-04-16T09:47:28Z</time>
      </trkpt>
      <trkpt lat="48.29241" lon="-4.31043">
        <ele>90.02</ele>
        <time>2013-04-16T09:47:29Z</time>
      </trkpt>
      <trkpt lat="48.29225" lon="-4.31056">
        <ele>90.02</ele>
        <time>2013-04-16T09:47:44Z</time>
      </trkpt>
      <trkpt lat="48.2922" lon="-4.31061">
        <ele>90.02</ele>
        <time>2013-04-16T09:47:50Z</time>
      </trkpt>
      <trkpt lat="48.29213" lon="-4.31063">
        <ele>90.02</ele>
        <time>2013-04-16T09:47:56Z</time>
      </trkpt>
      <trkpt lat="48.29197" lon="-4.31073">
        <ele>90.5</ele>
        <time>2013-04-16T09:48:10Z</time>
      </trkpt>
      <trkpt lat="48.29195" lon="-4.31081">
        <ele>90.98</ele>
        <time>2013-04-16T09:48:27Z</time>
      </trkpt>
      <trkpt lat="48.29188" lon="-4.31089">
        <ele>90.98</ele>
        <time>2013-04-16T09:48:41Z</time>
      </trkpt>
      <trkpt lat="48.29177" lon="-4.31096">
        <ele>90.02</ele>
        <time>2013-04-16T09:48:55Z</time>
      </trkpt>
      <trkpt lat="48.29176" lon="-4.31097">
        <ele>90.5</ele>
        <time>2013-04-16T09:48:57Z</time>
      </trkpt>
      <trkpt lat="48.29165" lon="-4.31114">
        <ele>90.5</ele>
        <time>2013-04-16T09:49:11Z</time>
      </trkpt>
      <trkpt lat="48.29161" lon="-4.31116">
        <ele>89.54</ele>
        <time>2013-04-16T09:49:14Z</time>
      </trkpt>
      <trkpt lat="48.29146" lon="-4.31135">
        <ele>90.02</ele>
        <time>2013-04-16T09:49:30Z</time>
      </trkpt>
      <trkpt lat="48.29139" lon="-4.31141">
        <ele>89.54</ele>
        <time>2013-04-16T09:49:38Z</time>
      </trkpt>
      <trkpt lat="48.29123" lon="-4.31144">
        <ele>89.06</ele>
        <time>2013-04-16T09:49:53Z</time>
      </trkpt>
      <trkpt lat="48.29113" lon="-4.31149">
        <ele>89.06</ele>
        <time>2013-04-16T09:50:03Z</time>
      </trkpt>
      <trkpt lat="48.29102" lon="-4.31153">
        <ele>88.1</ele>
        <time>2013-04-16T09:50:17Z</time>
      </trkpt>
      <trkpt lat="48.291" lon="-4.31153">
        <ele>88.1</ele>
        <time>2013-04-16T09:50:19Z</time>
      </trkpt>
      <trkpt lat="48.29087" lon="-4.31151">
        <ele>86.66</ele>
        <time>2013-04-16T09:50:36Z</time>
      </trkpt>
      <trkpt lat="48.2909" lon="-4.31144">
        <ele>87.62</ele>
        <time>2013-04-16T09:50:49Z</time>
      </trkpt>
      <trkpt lat="48.29092" lon="-4.31136">
        <ele>87.62</ele>
        <time>2013-04-16T09:51:02Z</time>
      </trkpt>
      <trkpt lat="48.29094" lon="-4.31134">
        <ele>87.62</ele>
        <time>2013-04-16T09:51:04Z</time>
      </trkpt>
      <trkpt lat="48.29092" lon="-4.31128">
        <ele>87.62</ele>
        <time>2013-04-16T09:51:25Z</time>
      </trkpt>
      <trkpt lat="48.29094" lon="-4.31117">
        <ele>88.1</ele>
        <time>2013-04-16T09:51:47Z</time>
      </trkpt>
      <trkpt lat="48.29096" lon="-4.31108">
        <ele>88.1</ele>
        <time>2013-04-16T09:52:03Z</time>
      </trkpt>
      <trkpt lat="48.29096" lon="-4.31087">
        <ele>88.58</ele>
        <time>2013-04-16T09:52:20Z</time>
      </trkpt>
      <trkpt lat="48.29096" lon="-4.3107">
        <ele>84.25</ele>
        <time>2013-04-16T09:52:30Z</time>
      </trkpt>
      <trkpt lat="48.29096" lon="-4.31069">
        <ele>87.62</ele>
        <time>2013-04-16T09:52:31Z</time>
      </trkpt>
      <trkpt lat="48.29096" lon="-4.31066">
        <ele>88.58</ele>
        <time>2013-04-16T09:52:33Z</time>
      </trkpt>
      <trkpt lat="48.29095" lon="-4.31064">
        <ele>85.21</ele>
        <time>2013-04-16T09:52:34Z</time>
      </trkpt>
      <trkpt lat="48.29095" lon="-4.31063">
        <ele>88.1</ele>
        <time>2013-04-16T09:52:35Z</time>
      </trkpt>
      <trkpt lat="48.29096" lon="-4.31062">
        <ele>87.62</ele>
        <time>2013-04-16T09:52:36Z</time>
      </trkpt>
      <trkpt lat="48.29096" lon="-4.31057">
        <ele>88.58</ele>
        <time>2013-04-16T09:52:40Z</time>
      </trkpt>
      <trkpt lat="48.291" lon="-4.31044">
        <ele>84.25</ele>
        <time>2013-04-16T09:52:49Z</time>
      </trkpt>
      <trkpt lat="48.291" lon="-4.31042">
        <ele>90.5</ele>
        <time>2013-04-16T09:52:50Z</time>
      </trkpt>
      <trkpt lat="48.291" lon="-4.31041">
        <ele>89.06</ele>
        <time>2013-04-16T09:52:51Z</time>
      </trkpt>
      <trkpt lat="48.29101" lon="-4.31038">
        <ele>92.9</ele>
        <time>2013-04-16T09:52:53Z</time>
      </trkpt>
      <trkpt lat="48.29101" lon="-4.31037">
        <ele>89.54</ele>
        <time>2013-04-16T09:52:54Z</time>
      </trkpt>
      <trkpt lat="48.29102" lon="-4.31031">
        <ele>86.18</ele>
        <time>2013-04-16T09:52:58Z</time>
      </trkpt>
      <trkpt lat="48.29103" lon="-4.31029">
        <ele>90.02</ele>
        <time>2013-04-16T09:52:59Z</time>
      </trkpt>
      <trkpt lat="48.29103" lon="-4.31028">
        <ele>85.69</ele>
        <time>2013-04-16T09:53:00Z</time>
      </trkpt>
      <trkpt lat="48.29104" lon="-4.31026">
        <ele>89.54</ele>
        <time>2013-04-16T09:53:01Z</time>
      </trkpt>
      <trkpt lat="48.29106" lon="-4.31022">
        <ele>85.21</ele>
        <time>2013-04-16T09:53:05Z</time>
      </trkpt>
      <trkpt lat="48.29106" lon="-4.31021">
        <ele>88.58</ele>
        <time>2013-04-16T09:53:06Z</time>
      </trkpt>
      <trkpt lat="48.29115" lon="-4.31">
        <ele>90.5</ele>
        <time>2013-04-16T09:53:22Z</time>
      </trkpt>
      <trkpt lat="48.29121" lon="-4.30984">
        <ele>89.06</ele>
        <time>2013-04-16T09:53:33Z</time>
      </trkpt>
      <trkpt lat="48.29121" lon="-4.30982">
        <ele>90.5</ele>
        <time>2013-04-16T09:53:34Z</time>
      </trkpt>
      <trkpt lat="48.29122" lon="-4.30979">
        <ele>90.5</ele>
        <time>2013-04-16T09:53:36Z</time>
      </trkpt>
      <trkpt lat="48.29127" lon="-4.30941">
        <ele>90.98</ele>
        <time>2013-04-16T09:53:58Z</time>
      </trkpt>
      <trkpt lat="48.29129" lon="-4.30927">
        <ele>91.46</ele>
        <time>2013-04-16T09:54:05Z</time>
      </trkpt>
      <trkpt lat="48.29135" lon="-4.30906">
        <ele>92.9</ele>
        <time>2013-04-16T09:54:18Z</time>
      </trkpt>
      <trkpt lat="48.29135" lon="-4.30903">
        <ele>91.46</ele>
        <time>2013-04-16T09:54:20Z</time>
      </trkpt>
      <trkpt lat="48.29138" lon="-4.30893">
        <ele>92.42</ele>
        <time>2013-04-16T09:54:26Z</time>
      </trkpt>
      <trkpt lat="48.2914" lon="-4.30889">
        <ele>91.94</ele>
        <time>2013-04-16T09:54:29Z</time>
      </trkpt>
      <trkpt lat="48.29142" lon="-4.30875">
        <ele>92.9</ele>
        <time>2013-04-16T09:54:37Z</time>
      </trkpt>
      <trkpt lat="48.29144" lon="-4.3087">
        <ele>92.9</ele>
        <time>2013-04-16T09:54:40Z</time>
      </trkpt>
      <trkpt lat="48.29146" lon="-4.30863">
        <ele>90.5</ele>
        <time>2013-04-16T09:54:44Z</time>
      </trkpt>
      <trkpt lat="48.29148" lon="-4.30848">
        <ele>92.42</ele>
        <time>2013-04-16T09:54:52Z</time>
      </trkpt>
      <trkpt lat="48.29151" lon="-4.30834">
        <ele>93.39</ele>
        <time>2013-04-16T09:55:00Z</time>
      </trkpt>
      <trkpt lat="48.29155" lon="-4.3082">
        <ele>93.39</ele>
        <time>2013-04-16T09:55:09Z</time>
      </trkpt>
      <trkpt lat="48.29157" lon="-4.30813">
        <ele>93.87</ele>
        <time>2013-04-16T09:55:13Z</time>
      </trkpt>
      <trkpt lat="48.29171" lon="-4.30791">
        <ele>93.87</ele>
        <time>2013-04-16T09:55:28Z</time>
      </trkpt>
      <trkpt lat="48.29184" lon="-4.30763">
        <ele>94.35</ele>
        <time>2013-04-16T09:55:46Z</time>
      </trkpt>
      <trkpt lat="48.29192" lon="-4.30726">
        <ele>94.35</ele>
        <time>2013-04-16T09:56:06Z</time>
      </trkpt>
      <trkpt lat="48.29196" lon="-4.30688">
        <ele>94.83</ele>
        <time>2013-04-16T09:56:27Z</time>
      </trkpt>
      <trkpt lat="48.29198" lon="-4.30661">
        <ele>94.35</ele>
        <time>2013-04-16T09:56:42Z</time>
      </trkpt>
      <trkpt lat="48.292" lon="-4.30653">
        <ele>94.83</ele>
        <time>2013-04-16T09:56:47Z</time>
      </trkpt>
      <trkpt lat="48.29202" lon="-4.30651">
        <ele>94.35</ele>
        <time>2013-04-16T09:56:49Z</time>
      </trkpt>
      <trkpt lat="48.29205" lon="-4.30641">
        <ele>95.31</ele>
        <time>2013-04-16T09:57:05Z</time>
      </trkpt>
      <trkpt lat="48.29203" lon="-4.30639">
        <ele>94.35</ele>
        <time>2013-04-16T09:57:55Z</time>
      </trkpt>
      <trkpt lat="48.29201" lon="-4.30623">
        <ele>94.83</ele>
        <time>2013-04-16T09:58:09Z</time>
      </trkpt>
      <trkpt lat="48.292" lon="-4.30608">
        <ele>93.87</ele>
        <time>2013-04-16T09:58:25Z</time>
      </trkpt>
      <trkpt lat="48.29201" lon="-4.30585">
        <ele>94.35</ele>
        <time>2013-04-16T09:58:38Z</time>
      </trkpt>
      <trkpt lat="48.29204" lon="-4.30556">
        <ele>94.83</ele>
        <time>2013-04-16T09:58:55Z</time>
      </trkpt>
      <trkpt lat="48.29205" lon="-4.30549">
        <ele>94.35</ele>
        <time>2013-04-16T09:58:59Z</time>
      </trkpt>
      <trkpt lat="48.29208" lon="-4.30517">
        <ele>95.31</ele>
        <time>2013-04-16T09:59:17Z</time>
      </trkpt>
      <trkpt lat="48.29207" lon="-4.30504">
        <ele>97.23</ele>
        <time>2013-04-16T09:59:24Z</time>
      </trkpt>
      <trkpt lat="48.29207" lon="-4.30498">
        <ele>95.31</ele>
        <time>2013-04-16T09:59:27Z</time>
      </trkpt>
      <trkpt lat="48.29209" lon="-4.30479">
        <ele>94.83</ele>
        <time>2013-04-16T09:59:38Z</time>
      </trkpt>
      <trkpt lat="48.29211" lon="-4.30472">
        <ele>95.31</ele>
        <time>2013-04-16T09:59:42Z</time>
      </trkpt>
      <trkpt lat="48.2921" lon="-4.30456">
        <ele>95.31</ele>
        <time>2013-04-16T09:59:51Z</time>
      </trkpt>
      <trkpt lat="48.2921" lon="-4.3045">
        <ele>95.79</ele>
        <time>2013-04-16T09:59:55Z</time>
      </trkpt>
      <trkpt lat="48.29211" lon="-4.3044">
        <ele>95.79</ele>
        <time>2013-04-16T10:00:01Z</time>
      </trkpt>
      <trkpt lat="48.29213" lon="-4.30412">
        <ele>96.75</ele>
        <time>2013-04-16T10:00:17Z</time>
      </trkpt>
      <trkpt lat="48.29212" lon="-4.30393">
        <ele>97.23</ele>
        <time>2013-04-16T10:00:27Z</time>
      </trkpt>
      <trkpt lat="48.29213" lon="-4.30388">
        <ele>96.75</ele>
        <time>2013-04-16T10:00:30Z</time>
      </trkpt>
      <trkpt lat="48.29214" lon="-4.30379">
        <ele>97.23</ele>
        <time>2013-04-16T10:00:35Z</time>
      </trkpt>
      <trkpt lat="48.29215" lon="-4.3036">
        <ele>97.23</ele>
        <time>2013-04-16T10:00:50Z</time>
      </trkpt>
      <trkpt lat="48.29215" lon="-4.30354">
        <ele>97.71</ele>
        <time>2013-04-16T10:00:56Z</time>
      </trkpt>
      <trkpt lat="48.29219" lon="-4.30321">
        <ele>97.23</ele>
        <time>2013-04-16T10:01:15Z</time>
      </trkpt>
      <trkpt lat="48.2922" lon="-4.3029">
        <ele>98.19</ele>
        <time>2013-04-16T10:01:32Z</time>
      </trkpt>
      <trkpt lat="48.29221" lon="-4.30279">
        <ele>98.67</ele>
        <time>2013-04-16T10:01:38Z</time>
      </trkpt>
      <trkpt lat="48.29221" lon="-4.30259">
        <ele>99.63</ele>
        <time>2013-04-16T10:01:50Z</time>
      </trkpt>
      <trkpt lat="48.29223" lon="-4.30243">
        <ele>99.63</ele>
        <time>2013-04-16T10:01:59Z</time>
      </trkpt>
      <trkpt lat="48.29224" lon="-4.30235">
        <ele>99.63</ele>
        <time>2013-04-16T10:02:04Z</time>
      </trkpt>
      <trkpt lat="48.29227" lon="-4.302">
        <ele>100.6</ele>
        <time>2013-04-16T10:02:23Z</time>
      </trkpt>
      <trkpt lat="48.29228" lon="-4.30169">
        <ele>100.6</ele>
        <time>2013-04-16T10:02:40Z</time>
      </trkpt>
      <trkpt lat="48.29231" lon="-4.3015">
        <ele>100.6</ele>
        <time>2013-04-16T10:02:51Z</time>
      </trkpt>
      <trkpt lat="48.29232" lon="-4.30143">
        <ele>100.6</ele>
        <time>2013-04-16T10:02:55Z</time>
      </trkpt>
      <trkpt lat="48.29237" lon="-4.30118">
        <ele>100.6</ele>
        <time>2013-04-16T10:03:10Z</time>
      </trkpt>
      <trkpt lat="48.2924" lon="-4.30105">
        <ele>101.08</ele>
        <time>2013-04-16T10:03:17Z</time>
      </trkpt>
      <trkpt lat="48.29256" lon="-4.30082">
        <ele>100.6</ele>
        <time>2013-04-16T10:03:35Z</time>
      </trkpt>
      <trkpt lat="48.29277" lon="-4.3007">
        <ele>99.15</ele>
        <time>2013-04-16T10:03:54Z</time>
      </trkpt>
      <trkpt lat="48.29284" lon="-4.30066">
        <ele>99.15</ele>
        <time>2013-04-16T10:04:01Z</time>
      </trkpt>
      <trkpt lat="48.29301" lon="-4.30045">
        <ele>98.19</ele>
        <time>2013-04-16T10:04:19Z</time>
      </trkpt>
      <trkpt lat="48.29304" lon="-4.30041">
        <ele>98.19</ele>
        <time>2013-04-16T10:04:22Z</time>
      </trkpt>
      <trkpt lat="48.29307" lon="-4.30034">
        <ele>98.19</ele>
        <time>2013-04-16T10:04:26Z</time>
      </trkpt>
      <trkpt lat="48.29308" lon="-4.30029">
        <ele>98.19</ele>
        <time>2013-04-16T10:04:50Z</time>
      </trkpt>
      <trkpt lat="48.29309" lon="-4.30023">
        <ele>97.71</ele>
        <time>2013-04-16T10:05:02Z</time>
      </trkpt>
      <trkpt lat="48.29309" lon="-4.3002">
        <ele>97.71</ele>
        <time>2013-04-16T10:05:05Z</time>
      </trkpt>
      <trkpt lat="48.29316" lon="-4.29998">
        <ele>97.71</ele>
        <time>2013-04-16T10:05:18Z</time>
      </trkpt>
      <trkpt lat="48.29324" lon="-4.29964">
        <ele>97.23</ele>
        <time>2013-04-16T10:05:37Z</time>
      </trkpt>
      <trkpt lat="48.29325" lon="-4.29961">
        <ele>97.23</ele>
        <time>2013-04-16T10:05:39Z</time>
      </trkpt>
      <trkpt lat="48.29327" lon="-4.29948">
        <ele>97.23</ele>
        <time>2013-04-16T10:05:46Z</time>
      </trkpt>
      <trkpt lat="48.29328" lon="-4.29935">
        <ele>96.75</ele>
        <time>2013-04-16T10:05:53Z</time>
      </trkpt>
      <trkpt lat="48.29328" lon="-4.29927">
        <ele>97.23</ele>
        <time>2013-04-16T10:05:58Z</time>
      </trkpt>
      <trkpt lat="48.29329" lon="-4.29915">
        <ele>97.23</ele>
        <time>2013-04-16T10:06:05Z</time>
      </trkpt>
      <trkpt lat="48.29327" lon="-4.29895">
        <ele>96.75</ele>
        <time>2013-04-16T10:06:17Z</time>
      </trkpt>
      <trkpt lat="48.29326" lon="-4.29888">
        <ele>97.23</ele>
        <time>2013-04-16T10:06:21Z</time>
      </trkpt>
      <trkpt lat="48.29325" lon="-4.29883">
        <ele>96.75</ele>
        <time>2013-04-16T10:06:24Z</time>
      </trkpt>
      <trkpt lat="48.29314" lon="-4.29852">
        <ele>97.71</ele>
        <time>2013-04-16T10:06:44Z</time>
      </trkpt>
      <trkpt lat="48.293" lon="-4.29826">
        <ele>98.67</ele>
        <time>2013-04-16T10:07:03Z</time>
      </trkpt>
      <trkpt lat="48.29298" lon="-4.29798">
        <ele>98.67</ele>
        <time>2013-04-16T10:07:20Z</time>
      </trkpt>
      <trkpt lat="48.29299" lon="-4.29766">
        <ele>98.19</ele>
        <time>2013-04-16T10:07:38Z</time>
      </trkpt>
      <trkpt lat="48.29299" lon="-4.29733">
        <ele>98.19</ele>
        <time>2013-04-16T10:07:57Z</time>
      </trkpt>
      <trkpt lat="48.293" lon="-4.29706">
        <ele>98.19</ele>
        <time>2013-04-16T10:08:13Z</time>
      </trkpt>
      <trkpt lat="48.29301" lon="-4.29701">
        <ele>97.23</ele>
        <time>2013-04-16T10:08:16Z</time>
      </trkpt>
      <trkpt lat="48.29302" lon="-4.29669">
        <ele>97.23</ele>
        <time>2013-04-16T10:08:34Z</time>
      </trkpt>
      <trkpt lat="48.29302" lon="-4.29664">
        <ele>97.71</ele>
        <time>2013-04-16T10:08:37Z</time>
      </trkpt>
      <trkpt lat="48.29303" lon="-4.29647">
        <ele>97.23</ele>
        <time>2013-04-16T10:08:47Z</time>
      </trkpt>
      <trkpt lat="48.29303" lon="-4.29611">
        <ele>97.71</ele>
        <time>2013-04-16T10:09:07Z</time>
      </trkpt>
      <trkpt lat="48.29303" lon="-4.2961">
        <ele>97.23</ele>
        <time>2013-04-16T10:09:08Z</time>
      </trkpt>
      <trkpt lat="48.29303" lon="-4.29603">
        <ele>97.23</ele>
        <time>2013-04-16T10:09:13Z</time>
      </trkpt>
      <trkpt lat="48.29302" lon="-4.29572">
        <ele>97.71</ele>
        <time>2013-04-16T10:09:30Z</time>
      </trkpt>
      <trkpt lat="48.29297" lon="-4.29545">
        <ele>98.19</ele>
        <time>2013-04-16T10:09:46Z</time>
      </trkpt>
      <trkpt lat="48.29296" lon="-4.29537">
        <ele>98.19</ele>
        <time>2013-04-16T10:09:50Z</time>
      </trkpt>
      <trkpt lat="48.29293" lon="-4.29509">
        <ele>98.19</ele>
        <time>2013-04-16T10:10:06Z</time>
      </trkpt>
      <trkpt lat="48.29297" lon="-4.29477">
        <ele>98.19</ele>
        <time>2013-04-16T10:10:24Z</time>
      </trkpt>
      <trkpt lat="48.29298" lon="-4.2944">
        <ele>98.19</ele>
        <time>2013-04-16T10:10:44Z</time>
      </trkpt>
      <trkpt lat="48.29303" lon="-4.29402">
        <ele>97.71</ele>
        <time>2013-04-16T10:11:04Z</time>
      </trkpt>
      <trkpt lat="48.29306" lon="-4.29382">
        <ele>98.19</ele>
        <time>2013-04-16T10:11:15Z</time>
      </trkpt>
      <trkpt lat="48.29307" lon="-4.29341">
        <ele>97.23</ele>
        <time>2013-04-16T10:11:37Z</time>
      </trkpt>
      <trkpt lat="48.29311" lon="-4.29304">
        <ele>97.23</ele>
        <time>2013-04-16T10:11:56Z</time>
      </trkpt>
      <trkpt lat="48.29314" lon="-4.29274">
        <ele>96.27</ele>
        <time>2013-04-16T10:12:12Z</time>
      </trkpt>
      <trkpt lat="48.29318" lon="-4.29246">
        <ele>94.83</ele>
        <time>2013-04-16T10:12:28Z</time>
      </trkpt>
      <trkpt lat="48.29327" lon="-4.29213">
        <ele>95.79</ele>
        <time>2013-04-16T10:12:47Z</time>
      </trkpt>
      <trkpt lat="48.29334" lon="-4.29194">
        <ele>95.79</ele>
        <time>2013-04-16T10:13:00Z</time>
      </trkpt>
      <trkpt lat="48.29338" lon="-4.29181">
        <ele>95.79</ele>
        <time>2013-04-16T10:13:08Z</time>
      </trkpt>
      <trkpt lat="48.29341" lon="-4.29155">
        <ele>96.27</ele>
        <time>2013-04-16T10:13:25Z</time>
      </trkpt>
      <trkpt lat="48.29337" lon="-4.29121">
        <ele>96.75</ele>
        <time>2013-04-16T10:13:42Z</time>
      </trkpt>
      <trkpt lat="48.29337" lon="-4.29107">
        <ele>97.23</ele>
        <time>2013-04-16T10:14:00Z</time>
      </trkpt>
      <trkpt lat="48.29337" lon="-4.29104">
        <ele>97.23</ele>
        <time>2013-04-16T10:14:18Z</time>
      </trkpt>
      <trkpt lat="48.29337" lon="-4.29104">
        <ele>97.71</ele>
        <time>2013-04-16T10:14:57Z</time>
      </trkpt>
      <trkpt lat="48.29336" lon="-4.29102">
        <ele>97.23</ele>
        <time>2013-04-16T10:15:31Z</time>
      </trkpt>
      <trkpt lat="48.29336" lon="-4.29102">
        <ele>97.23</ele>
        <time>2013-04-16T10:16:21Z</time>
      </trkpt>
      <trkpt lat="48.29336" lon="-4.29091">
        <ele>98.19</ele>
        <time>2013-04-16T10:16:31Z</time>
      </trkpt>
      <trkpt lat="48.29332" lon="-4.29059">
        <ele>98.67</ele>
        <time>2013-04-16T10:16:49Z</time>
      </trkpt>
      <trkpt lat="48.29328" lon="-4.29026">
        <ele>99.15</ele>
        <time>2013-04-16T10:17:07Z</time>
      </trkpt>
      <trkpt lat="48.29328" lon="-4.29021">
        <ele>99.15</ele>
        <time>2013-04-16T10:17:10Z</time>
      </trkpt>
      <trkpt lat="48.29327" lon="-4.29006">
        <ele>99.15</ele>
        <time>2013-04-16T10:17:20Z</time>
      </trkpt>
      <trkpt lat="48.29322" lon="-4.28971">
        <ele>100.6</ele>
        <time>2013-04-16T10:17:39Z</time>
      </trkpt>
      <trkpt lat="48.29318" lon="-4.28938">
        <ele>100.6</ele>
        <time>2013-04-16T10:17:57Z</time>
      </trkpt>
      <trkpt lat="48.29317" lon="-4.28924">
        <ele>100.11</ele>
        <time>2013-04-16T10:18:05Z</time>
      </trkpt>
      <trkpt lat="48.29318" lon="-4.28886">
        <ele>101.08</ele>
        <time>2013-04-16T10:18:26Z</time>
      </trkpt>
      <trkpt lat="48.29317" lon="-4.28851">
        <ele>101.56</ele>
        <time>2013-04-16T10:18:45Z</time>
      </trkpt>
      <trkpt lat="48.29314" lon="-4.28817">
        <ele>101.08</ele>
        <time>2013-04-16T10:19:04Z</time>
      </trkpt>
      <trkpt lat="48.29311" lon="-4.28815">
        <ele>101.08</ele>
        <time>2013-04-16T10:19:08Z</time>
      </trkpt>
      <trkpt lat="48.2929" lon="-4.28814">
        <ele>102.04</ele>
        <time>2013-04-16T10:19:25Z</time>
      </trkpt>
      <trkpt lat="48.29287" lon="-4.28816">
        <ele>102.52</ele>
        <time>2013-04-16T10:19:28Z</time>
      </trkpt>
      <trkpt lat="48.29279" lon="-4.28815">
        <ele>102.52</ele>
        <time>2013-04-16T10:19:35Z</time>
      </trkpt>
      <trkpt lat="48.29272" lon="-4.28807">
        <ele>102.04</ele>
        <time>2013-04-16T10:19:44Z</time>
      </trkpt>
      <trkpt lat="48.29255" lon="-4.28795">
        <ele>103.48</ele>
        <time>2013-04-16T10:20:00Z</time>
      </trkpt>
      <trkpt lat="48.29253" lon="-4.28789">
        <ele>103.48</ele>
        <time>2013-04-16T10:20:04Z</time>
      </trkpt>
      <trkpt lat="48.29246" lon="-4.28784">
        <ele>103</ele>
        <time>2013-04-16T10:20:10Z</time>
      </trkpt>
      <trkpt lat="48.29228" lon="-4.28777">
        <ele>104.44</ele>
        <time>2013-04-16T10:20:24Z</time>
      </trkpt>
      <trkpt lat="48.29214" lon="-4.28772">
        <ele>104.92</ele>
        <time>2013-04-16T10:20:39Z</time>
      </trkpt>
      <trkpt lat="48.29191" lon="-4.28763">
        <ele>105.4</ele>
        <time>2013-04-16T10:20:57Z</time>
      </trkpt>
      <trkpt lat="48.29171" lon="-4.28757">
        <ele>106.36</ele>
        <time>2013-04-16T10:21:13Z</time>
      </trkpt>
      <trkpt lat="48.29157" lon="-4.28741">
        <ele>105.88</ele>
        <time>2013-04-16T10:21:29Z</time>
      </trkpt>
      <trkpt lat="48.29154" lon="-4.2873">
        <ele>104.92</ele>
        <time>2013-04-16T10:21:36Z</time>
      </trkpt>
      <trkpt lat="48.29152" lon="-4.28721">
        <ele>105.4</ele>
        <time>2013-04-16T10:21:42Z</time>
      </trkpt>
      <trkpt lat="48.29151" lon="-4.2871">
        <ele>105.4</ele>
        <time>2013-04-16T10:21:48Z</time>
      </trkpt>
      <trkpt lat="48.29152" lon="-4.28706">
        <ele>105.4</ele>
        <time>2013-04-16T10:21:50Z</time>
      </trkpt>
      <trkpt lat="48.29152" lon="-4.28697">
        <ele>104.44</ele>
        <time>2013-04-16T10:21:55Z</time>
      </trkpt>
      <trkpt lat="48.29156" lon="-4.28669">
        <ele>104.92</ele>
        <time>2013-04-16T10:22:10Z</time>
      </trkpt>
      <trkpt lat="48.29158" lon="-4.2866">
        <ele>104.92</ele>
        <time>2013-04-16T10:22:15Z</time>
      </trkpt>
      <trkpt lat="48.29159" lon="-4.28656">
        <ele>104.92</ele>
        <time>2013-04-16T10:22:17Z</time>
      </trkpt>
      <trkpt lat="48.29163" lon="-4.28637">
        <ele>105.4</ele>
        <time>2013-04-16T10:22:28Z</time>
      </trkpt>
      <trkpt lat="48.29164" lon="-4.28614">
        <ele>103.96</ele>
        <time>2013-04-16T10:22:42Z</time>
      </trkpt>
      <trkpt lat="48.29159" lon="-4.28609">
        <ele>103.96</ele>
        <time>2013-04-16T10:22:47Z</time>
      </trkpt>
      <trkpt lat="48.29154" lon="-4.28607">
        <ele>104.44</ele>
        <time>2013-04-16T10:22:51Z</time>
      </trkpt>
      <trkpt lat="48.29127" lon="-4.28604">
        <ele>104.44</ele>
        <time>2013-04-16T10:23:09Z</time>
      </trkpt>
      <trkpt lat="48.29102" lon="-4.28606">
        <ele>103.48</ele>
        <time>2013-04-16T10:23:29Z</time>
      </trkpt>
      <trkpt lat="48.29095" lon="-4.28607">
        <ele>103.96</ele>
        <time>2013-04-16T10:23:45Z</time>
      </trkpt>
      <trkpt lat="48.29095" lon="-4.28607">
        <ele>104.44</ele>
        <time>2013-04-16T10:24:13Z</time>
      </trkpt>
      <trkpt lat="48.29094" lon="-4.28607">
        <ele>103.96</ele>
        <time>2013-04-16T10:24:46Z</time>
      </trkpt>
      <trkpt lat="48.29077" lon="-4.28608">
        <ele>102.04</ele>
        <time>2013-04-16T10:25:03Z</time>
      </trkpt>
      <trkpt lat="48.29058" lon="-4.28609">
        <ele>100.11</ele>
        <time>2013-04-16T10:25:20Z</time>
      </trkpt>
      <trkpt lat="48.29056" lon="-4.28608">
        <ele>99.63</ele>
        <time>2013-04-16T10:25:22Z</time>
      </trkpt>
      <trkpt lat="48.2905" lon="-4.28586">
        <ele>99.63</ele>
        <time>2013-04-16T10:25:35Z</time>
      </trkpt>
      <trkpt lat="48.29049" lon="-4.28575">
        <ele>99.63</ele>
        <time>2013-04-16T10:25:47Z</time>
      </trkpt>
      <trkpt lat="48.2905" lon="-4.28572">
        <ele>99.15</ele>
        <time>2013-04-16T10:25:49Z</time>
      </trkpt>
      <trkpt lat="48.29048" lon="-4.28548">
        <ele>98.19</ele>
        <time>2013-04-16T10:26:04Z</time>
      </trkpt>
      <trkpt lat="48.29041" lon="-4.28517">
        <ele>98.19</ele>
        <time>2013-04-16T10:26:20Z</time>
      </trkpt>
      <trkpt lat="48.2904" lon="-4.28515">
        <ele>97.23</ele>
        <time>2013-04-16T10:26:22Z</time>
      </trkpt>
      <trkpt lat="48.29038" lon="-4.28509">
        <ele>96.75</ele>
        <time>2013-04-16T10:26:26Z</time>
      </trkpt>
      <trkpt lat="48.29037" lon="-4.28483">
        <ele>96.27</ele>
        <time>2013-04-16T10:26:42Z</time>
      </trkpt>
      <trkpt lat="48.29036" lon="-4.28456">
        <ele>98.19</ele>
        <time>2013-04-16T10:26:56Z</time>
      </trkpt>
      <trkpt lat="48.29036" lon="-4.28455">
        <ele>93.87</ele>
        <time>2013-04-16T10:26:57Z</time>
      </trkpt>
      <trkpt lat="48.29036" lon="-4.28453">
        <ele>96.75</ele>
        <time>2013-04-16T10:26:58Z</time>
      </trkpt>
      <trkpt lat="48.2904" lon="-4.28433">
        <ele>95.31</ele>
        <time>2013-04-16T10:27:11Z</time>
      </trkpt>
      <trkpt lat="48.29042" lon="-4.2843">
        <ele>94.35</ele>
        <time>2013-04-16T10:27:14Z</time>
      </trkpt>
      <trkpt lat="48.29045" lon="-4.28424">
        <ele>95.31</ele>
        <time>2013-04-16T10:27:19Z</time>
      </trkpt>
      <trkpt lat="48.29048" lon="-4.28411">
        <ele>94.83</ele>
        <time>2013-04-16T10:27:30Z</time>
      </trkpt>
      <trkpt lat="48.29048" lon="-4.284">
        <ele>95.31</ele>
        <time>2013-04-16T10:27:35Z</time>
      </trkpt>
      <trkpt lat="48.29055" lon="-4.28371">
        <ele>94.35</ele>
        <time>2013-04-16T10:27:54Z</time>
      </trkpt>
      <trkpt lat="48.2906" lon="-4.28358">
        <ele>94.35</ele>
        <time>2013-04-16T10:28:10Z</time>
      </trkpt>
      <trkpt lat="48.2906" lon="-4.28343">
        <ele>93.87</ele>
        <time>2013-04-16T10:28:18Z</time>
      </trkpt>
      <trkpt lat="48.29059" lon="-4.28332">
        <ele>94.83</ele>
        <time>2013-04-16T10:28:25Z</time>
      </trkpt>
      <trkpt lat="48.2906" lon="-4.28302">
        <ele>95.31</ele>
        <time>2013-04-16T10:28:41Z</time>
      </trkpt>
      <trkpt lat="48.29061" lon="-4.28266">
        <ele>95.31</ele>
        <time>2013-04-16T10:28:56Z</time>
      </trkpt>
      <trkpt lat="48.29063" lon="-4.28236">
        <ele>94.83</ele>
        <time>2013-04-16T10:29:15Z</time>
      </trkpt>
      <trkpt lat="48.29066" lon="-4.28203">
        <ele>90.98</ele>
        <time>2013-04-16T10:29:29Z</time>
      </trkpt>
      <trkpt lat="48.29066" lon="-4.282">
        <ele>94.35</ele>
        <time>2013-04-16T10:29:31Z</time>
      </trkpt>
      <trkpt lat="48.29068" lon="-4.28196">
        <ele>92.9</ele>
        <time>2013-04-16T10:29:34Z</time>
      </trkpt>
      <trkpt lat="48.29069" lon="-4.28194">
        <ele>88.58</ele>
        <time>2013-04-16T10:29:36Z</time>
      </trkpt>
      <trkpt lat="48.29069" lon="-4.28193">
        <ele>92.9</ele>
        <time>2013-04-16T10:29:37Z</time>
      </trkpt>
      <trkpt lat="48.29072" lon="-4.28172">
        <ele>91.46</ele>
        <time>2013-04-16T10:29:50Z</time>
      </trkpt>
      <trkpt lat="48.29076" lon="-4.28152">
        <ele>90.02</ele>
        <time>2013-04-16T10:30:05Z</time>
      </trkpt>
      <trkpt lat="48.29081" lon="-4.28134">
        <ele>89.54</ele>
        <time>2013-04-16T10:30:19Z</time>
      </trkpt>
      <trkpt lat="48.29075" lon="-4.28107">
        <ele>88.1</ele>
        <time>2013-04-16T10:30:32Z</time>
      </trkpt>
      <trkpt lat="48.29074" lon="-4.28102">
        <ele>87.62</ele>
        <time>2013-04-16T10:30:58Z</time>
      </trkpt>
      <trkpt lat="48.29072" lon="-4.28096">
        <ele>87.62</ele>
        <time>2013-04-16T10:31:23Z</time>
      </trkpt>
      <trkpt lat="48.29072" lon="-4.28095">
        <ele>90.02</ele>
        <time>2013-04-16T10:32:07Z</time>
      </trkpt>
      <trkpt lat="48.29072" lon="-4.28095">
        <ele>88.58</ele>
        <time>2013-04-16T10:32:09Z</time>
      </trkpt>
      <trkpt lat="48.29073" lon="-4.28089">
        <ele>88.1</ele>
        <time>2013-04-16T10:32:29Z</time>
      </trkpt>
      <trkpt lat="48.29068" lon="-4.28082">
        <ele>86.18</ele>
        <time>2013-04-16T10:32:44Z</time>
      </trkpt>
      <trkpt lat="48.2907" lon="-4.28083">
        <ele>86.66</ele>
        <time>2013-04-16T10:33:17Z</time>
      </trkpt>
      <trkpt lat="48.29066" lon="-4.2808">
        <ele>86.18</ele>
        <time>2013-04-16T10:33:36Z</time>
      </trkpt>
      <trkpt lat="48.29069" lon="-4.28085">
        <ele>86.66</ele>
        <time>2013-04-16T10:33:59Z</time>
      </trkpt>
      <trkpt lat="48.29075" lon="-4.28083">
        <ele>88.1</ele>
        <time>2013-04-16T10:34:11Z</time>
      </trkpt>
      <trkpt lat="48.29076" lon="-4.28079">
        <ele>87.62</ele>
        <time>2013-04-16T10:34:14Z</time>
      </trkpt>
      <trkpt lat="48.29082" lon="-4.28051">
        <ele>86.18</ele>
        <time>2013-04-16T10:34:31Z</time>
      </trkpt>
      <trkpt lat="48.29094" lon="-4.28031">
        <ele>84.73</ele>
        <time>2013-04-16T10:34:46Z</time>
      </trkpt>
      <trkpt lat="48.29099" lon="-4.28019">
        <ele>84.73</ele>
        <time>2013-04-16T10:34:55Z</time>
      </trkpt>
      <trkpt lat="48.29112" lon="-4.27998">
        <ele>83.29</ele>
        <time>2013-04-16T10:35:10Z</time>
      </trkpt>
      <trkpt lat="48.29114" lon="-4.27995">
        <ele>83.29</ele>
        <time>2013-04-16T10:35:12Z</time>
      </trkpt>
      <trkpt lat="48.29115" lon="-4.2799">
        <ele>83.29</ele>
        <time>2013-04-16T10:35:14Z</time>
      </trkpt>
      <trkpt lat="48.29129" lon="-4.27977">
        <ele>82.33</ele>
        <time>2013-04-16T10:35:29Z</time>
      </trkpt>
      <trkpt lat="48.29145" lon="-4.27971">
        <ele>80.41</ele>
        <time>2013-04-16T10:35:46Z</time>
      </trkpt>
      <trkpt lat="48.29162" lon="-4.27955">
        <ele>78</ele>
        <time>2013-04-16T10:36:01Z</time>
      </trkpt>
      <trkpt lat="48.29164" lon="-4.2795">
        <ele>77.52</ele>
        <time>2013-04-16T10:36:05Z</time>
      </trkpt>
      <trkpt lat="48.29175" lon="-4.27913">
        <ele>75.6</ele>
        <time>2013-04-16T10:36:21Z</time>
      </trkpt>
      <trkpt lat="48.29178" lon="-4.279">
        <ele>70.31</ele>
        <time>2013-04-16T10:36:28Z</time>
      </trkpt>
      <trkpt lat="48.29178" lon="-4.27898">
        <ele>74.16</ele>
        <time>2013-04-16T10:36:29Z</time>
      </trkpt>
      <trkpt lat="48.29183" lon="-4.27875">
        <ele>73.68</ele>
        <time>2013-04-16T10:36:43Z</time>
      </trkpt>
      <trkpt lat="48.29186" lon="-4.27848">
        <ele>73.68</ele>
        <time>2013-04-16T10:37:00Z</time>
      </trkpt>
      <trkpt lat="48.29184" lon="-4.27837">
        <ele>73.2</ele>
        <time>2013-04-16T10:37:06Z</time>
      </trkpt>
      <trkpt lat="48.29186" lon="-4.27799">
        <ele>73.2</ele>
        <time>2013-04-16T10:37:26Z</time>
      </trkpt>
      <trkpt lat="48.29188" lon="-4.2777">
        <ele>74.16</ele>
        <time>2013-04-16T10:37:43Z</time>
      </trkpt>
      <trkpt lat="48.29189" lon="-4.27758">
        <ele>74.64</ele>
        <time>2013-04-16T10:37:51Z</time>
      </trkpt>
      <trkpt lat="48.29182" lon="-4.27727">
        <ele>76.08</ele>
        <time>2013-04-16T10:38:10Z</time>
      </trkpt>
      <trkpt lat="48.29183" lon="-4.27711">
        <ele>76.08</ele>
        <time>2013-04-16T10:38:17Z</time>
      </trkpt>
      <trkpt lat="48.29179" lon="-4.27684">
        <ele>77.04</ele>
        <time>2013-04-16T10:38:32Z</time>
      </trkpt>
      <trkpt lat="48.29179" lon="-4.2765">
        <ele>76.56</ele>
        <time>2013-04-16T10:38:50Z</time>
      </trkpt>
      <trkpt lat="48.29175" lon="-4.27629">
        <ele>75.6</ele>
        <time>2013-04-16T10:39:02Z</time>
      </trkpt>
      <trkpt lat="48.29167" lon="-4.27591">
        <ele>74.64</ele>
        <time>2013-04-16T10:39:23Z</time>
      </trkpt>
      <trkpt lat="48.29161" lon="-4.27559">
        <ele>72.72</ele>
        <time>2013-04-16T10:39:40Z</time>
      </trkpt>
      <trkpt lat="48.29159" lon="-4.27522">
        <ele>72.24</ele>
        <time>2013-04-16T10:39:59Z</time>
      </trkpt>
      <trkpt lat="48.2915" lon="-4.27487">
        <ele>70.79</ele>
        <time>2013-04-16T10:40:18Z</time>
      </trkpt>
      <trkpt lat="48.29147" lon="-4.2745">
        <ele>69.35</ele>
        <time>2013-04-16T10:40:38Z</time>
      </trkpt>
      <trkpt lat="48.29141" lon="-4.27416">
        <ele>68.39</ele>
        <time>2013-04-16T10:40:57Z</time>
      </trkpt>
      <trkpt lat="48.29132" lon="-4.27385">
        <ele>66.95</ele>
        <time>2013-04-16T10:41:14Z</time>
      </trkpt>
      <trkpt lat="48.29128" lon="-4.27367">
        <ele>66.47</ele>
        <time>2013-04-16T10:41:25Z</time>
      </trkpt>
      <trkpt lat="48.29131" lon="-4.27361">
        <ele>66.47</ele>
        <time>2013-04-16T10:41:28Z</time>
      </trkpt>
      <trkpt lat="48.29129" lon="-4.27341">
        <ele>65.99</ele>
        <time>2013-04-16T10:41:39Z</time>
      </trkpt>
      <trkpt lat="48.29122" lon="-4.27307">
        <ele>64.07</ele>
        <time>2013-04-16T10:41:57Z</time>
      </trkpt>
      <trkpt lat="48.29113" lon="-4.27281">
        <ele>63.1</ele>
        <time>2013-04-16T10:42:13Z</time>
      </trkpt>
      <trkpt lat="48.29109" lon="-4.27252">
        <ele>60.22</ele>
        <time>2013-04-16T10:42:28Z</time>
      </trkpt>
      <trkpt lat="48.29108" lon="-4.2724">
        <ele>55.41</ele>
        <time>2013-04-16T10:42:35Z</time>
      </trkpt>
      <trkpt lat="48.29108" lon="-4.27239">
        <ele>59.74</ele>
        <time>2013-04-16T10:42:36Z</time>
      </trkpt>
      <trkpt lat="48.29106" lon="-4.27214">
        <ele>58.3</ele>
        <time>2013-04-16T10:42:51Z</time>
      </trkpt>
      <trkpt lat="48.29106" lon="-4.27184">
        <ele>56.37</ele>
        <time>2013-04-16T10:43:07Z</time>
      </trkpt>
      <trkpt lat="48.29106" lon="-4.27153">
        <ele>53.97</ele>
        <time>2013-04-16T10:43:23Z</time>
      </trkpt>
      <trkpt lat="48.29106" lon="-4.27149">
        <ele>53.01</ele>
        <time>2013-04-16T10:43:25Z</time>
      </trkpt>
      <trkpt lat="48.29108" lon="-4.27132">
        <ele>51.57</ele>
        <time>2013-04-16T10:43:35Z</time>
      </trkpt>
      <trkpt lat="48.2911" lon="-4.27124">
        <ele>51.57</ele>
        <time>2013-04-16T10:43:39Z</time>
      </trkpt>
      <trkpt lat="48.2911" lon="-4.27121">
        <ele>51.09</ele>
        <time>2013-04-16T10:43:41Z</time>
      </trkpt>
      <trkpt lat="48.29115" lon="-4.27104">
        <ele>50.13</ele>
        <time>2013-04-16T10:43:51Z</time>
      </trkpt>
      <trkpt lat="48.29117" lon="-4.27094">
        <ele>48.68</ele>
        <time>2013-04-16T10:43:57Z</time>
      </trkpt>
      <trkpt lat="48.29118" lon="-4.27088">
        <ele>48.68</ele>
        <time>2013-04-16T10:44:00Z</time>
      </trkpt>
      <trkpt lat="48.29119" lon="-4.27082">
        <ele>47.24</ele>
        <time>2013-04-16T10:44:04Z</time>
      </trkpt>
      <trkpt lat="48.29119" lon="-4.27079">
        <ele>47.24</ele>
        <time>2013-04-16T10:44:06Z</time>
      </trkpt>
      <trkpt lat="48.29122" lon="-4.27064">
        <ele>45.32</ele>
        <time>2013-04-16T10:44:15Z</time>
      </trkpt>
      <trkpt lat="48.29124" lon="-4.27053">
        <ele>44.36</ele>
        <time>2013-04-16T10:44:21Z</time>
      </trkpt>
      <trkpt lat="48.29125" lon="-4.27044">
        <ele>43.4</ele>
        <time>2013-04-16T10:44:26Z</time>
      </trkpt>
      <trkpt lat="48.29128" lon="-4.27032">
        <ele>41.95</ele>
        <time>2013-04-16T10:44:33Z</time>
      </trkpt>
      <trkpt lat="48.29129" lon="-4.27002">
        <ele>39.07</ele>
        <time>2013-04-16T10:44:51Z</time>
      </trkpt>
      <trkpt lat="48.29128" lon="-4.26976">
        <ele>36.19</ele>
        <time>2013-04-16T10:45:08Z</time>
      </trkpt>
      <trkpt lat="48.29127" lon="-4.26967">
        <ele>35.71</ele>
        <time>2013-04-16T10:45:23Z</time>
      </trkpt>
      <trkpt lat="48.29129" lon="-4.26962">
        <ele>35.23</ele>
        <time>2013-04-16T10:45:43Z</time>
      </trkpt>
      <trkpt lat="48.29135" lon="-4.26935">
        <ele>32.34</ele>
        <time>2013-04-16T10:45:59Z</time>
      </trkpt>
      <trkpt lat="48.29139" lon="-4.26907">
        <ele>28.98</ele>
        <time>2013-04-16T10:46:16Z</time>
      </trkpt>
      <trkpt lat="48.29145" lon="-4.26878">
        <ele>27.05</ele>
        <time>2013-04-16T10:46:34Z</time>
      </trkpt>
      <trkpt lat="48.29148" lon="-4.26856">
        <ele>24.17</ele>
        <time>2013-04-16T10:46:47Z</time>
      </trkpt>
      <trkpt lat="48.29152" lon="-4.26825">
        <ele>22.25</ele>
        <time>2013-04-16T10:47:04Z</time>
      </trkpt>
      <trkpt lat="48.29154" lon="-4.26811">
        <ele>21.29</ele>
        <time>2013-04-16T10:47:12Z</time>
      </trkpt>
      <trkpt lat="48.29156" lon="-4.26806">
        <ele>20.81</ele>
        <time>2013-04-16T10:47:15Z</time>
      </trkpt>
      <trkpt lat="48.29157" lon="-4.26794">
        <ele>20.32</ele>
        <time>2013-04-16T10:47:22Z</time>
      </trkpt>
      <trkpt lat="48.29158" lon="-4.26785">
        <ele>18.88</ele>
        <time>2013-04-16T10:47:27Z</time>
      </trkpt>
      <trkpt lat="48.29161" lon="-4.26758">
        <ele>16.96</ele>
        <time>2013-04-16T10:47:42Z</time>
      </trkpt>
      <trkpt lat="48.29163" lon="-4.26745">
        <ele>16.48</ele>
        <time>2013-04-16T10:47:57Z</time>
      </trkpt>
      <trkpt lat="48.29162" lon="-4.26743">
        <ele>16</ele>
        <time>2013-04-16T10:48:18Z</time>
      </trkpt>
      <trkpt lat="48.29165" lon="-4.26743">
        <ele>16.48</ele>
        <time>2013-04-16T10:48:36Z</time>
      </trkpt>
      <trkpt lat="48.29167" lon="-4.26744">
        <ele>16.96</ele>
        <time>2013-04-16T10:49:44Z</time>
      </trkpt>
      <trkpt lat="48.29178" lon="-4.26751">
        <ele>17.44</ele>
        <time>2013-04-16T10:49:56Z</time>
      </trkpt>
      <trkpt lat="48.29199" lon="-4.26759">
        <ele>16.96</ele>
        <time>2013-04-16T10:50:13Z</time>
      </trkpt>
      <trkpt lat="48.29218" lon="-4.26765">
        <ele>16</ele>
        <time>2013-04-16T10:50:29Z</time>
      </trkpt>
      <trkpt lat="48.29217" lon="-4.26784">
        <ele>17.44</ele>
        <time>2013-04-16T10:50:43Z</time>
      </trkpt>
      <trkpt lat="48.29219" lon="-4.268">
        <ele>18.4</ele>
        <time>2013-04-16T10:50:53Z</time>
      </trkpt>
      <trkpt lat="48.29216" lon="-4.26815">
        <ele>18.88</ele>
        <time>2013-04-16T10:51:09Z</time>
      </trkpt>
      <trkpt lat="48.29216" lon="-4.26815">
        <ele>18.88</ele>
        <time>2013-04-16T10:51:13Z</time>
      </trkpt>
      <trkpt lat="48.29213" lon="-4.26822">
        <ele>19.36</ele>
        <time>2013-04-16T10:51:21Z</time>
      </trkpt>
      <trkpt lat="48.29208" lon="-4.26819">
        <ele>18.88</ele>
        <time>2013-04-16T10:51:27Z</time>
      </trkpt>
      <trkpt lat="48.29211" lon="-4.26802">
        <ele>18.88</ele>
        <time>2013-04-16T10:51:42Z</time>
      </trkpt>
      <trkpt lat="48.29213" lon="-4.26802">
        <ele>18.88</ele>
        <time>2013-04-16T10:51:45Z</time>
      </trkpt>
      <trkpt lat="48.29216" lon="-4.26804">
        <ele>18.4</ele>
        <time>2013-04-16T10:51:48Z</time>
      </trkpt>
      <trkpt lat="48.29218" lon="-4.26807">
        <ele>18.88</ele>
        <time>2013-04-16T10:51:50Z</time>
      </trkpt>
      <trkpt lat="48.29219" lon="-4.26812">
        <ele>18.88</ele>
        <time>2013-04-16T10:52:02Z</time>
      </trkpt>
      <trkpt lat="48.29223" lon="-4.2679">
        <ele>17.92</ele>
        <time>2013-04-16T10:52:14Z</time>
      </trkpt>
      <trkpt lat="48.29222" lon="-4.26762">
        <ele>16.48</ele>
        <time>2013-04-16T10:52:31Z</time>
      </trkpt>
      <trkpt lat="48.29222" lon="-4.26762">
        <ele>16.48</ele>
        <time>2013-04-16T10:52:32Z</time>
      </trkpt>
      <trkpt lat="48.29245" lon="-4.26761">
        <ele>15.52</ele>
        <time>2013-04-16T10:52:50Z</time>
      </trkpt>
      <trkpt lat="48.29247" lon="-4.26761">
        <ele>14.56</ele>
        <time>2013-04-16T10:53:02Z</time>
      </trkpt>
      <trkpt lat="48.2925" lon="-4.2676">
        <ele>15.04</ele>
        <time>2013-04-16T10:53:06Z</time>
      </trkpt>
      <trkpt lat="48.29254" lon="-4.26762">
        <ele>14.08</ele>
        <time>2013-04-16T10:53:09Z</time>
      </trkpt>
      <trkpt lat="48.29267" lon="-4.26762">
        <ele>13.12</ele>
        <time>2013-04-16T10:53:22Z</time>
      </trkpt>
      <trkpt lat="48.29288" lon="-4.26769">
        <ele>12.15</ele>
        <time>2013-04-16T10:53:39Z</time>
      </trkpt>
      <trkpt lat="48.2929" lon="-4.2677">
        <ele>12.15</ele>
        <time>2013-04-16T10:53:41Z</time>
      </trkpt>
      <trkpt lat="48.29297" lon="-4.26769">
        <ele>12.15</ele>
        <time>2013-04-16T10:53:47Z</time>
      </trkpt>
      <trkpt lat="48.293" lon="-4.26766">
        <ele>12.15</ele>
        <time>2013-04-16T10:53:56Z</time>
      </trkpt>
      <trkpt lat="48.29288" lon="-4.26764">
        <ele>12.63</ele>
        <time>2013-04-16T10:54:09Z</time>
      </trkpt>
      <trkpt lat="48.29281" lon="-4.26762">
        <ele>13.12</ele>
        <time>2013-04-16T10:54:25Z</time>
      </trkpt>
      <trkpt lat="48.29281" lon="-4.26762">
        <ele>13.12</ele>
        <time>2013-04-16T10:54:42Z</time>
      </trkpt>
      <trkpt lat="48.29284" lon="-4.26764">
        <ele>13.12</ele>
        <time>2013-04-16T10:54:45Z</time>
      </trkpt>
      <trkpt lat="48.29292" lon="-4.26763">
        <ele>13.12</ele>
        <time>2013-04-16T10:54:59Z</time>
      </trkpt>
      <trkpt lat="48.29292" lon="-4.26763">
        <ele>13.12</ele>
        <time>2013-04-16T10:55:20Z</time>
      </trkpt>
      <trkpt lat="48.29272" lon="-4.2676">
        <ele>13.6</ele>
        <time>2013-04-16T10:55:37Z</time>
      </trkpt>
      <trkpt lat="48.29254" lon="-4.2676">
        <ele>14.56</ele>
        <time>2013-04-16T10:55:52Z</time>
      </trkpt>
      <trkpt lat="48.29236" lon="-4.26755">
        <ele>16.48</ele>
        <time>2013-04-16T10:56:07Z</time>
      </trkpt>
      <trkpt lat="48.29226" lon="-4.26758">
        <ele>16.48</ele>
        <time>2013-04-16T10:56:17Z</time>
      </trkpt>
      <trkpt lat="48.29227" lon="-4.26761">
        <ele>16.96</ele>
        <time>2013-04-16T10:56:27Z</time>
      </trkpt>
      <trkpt lat="48.29224" lon="-4.26762">
        <ele>17.44</ele>
        <time>2013-04-16T10:56:30Z</time>
      </trkpt>
      <trkpt lat="48.29222" lon="-4.26771">
        <ele>18.4</ele>
        <time>2013-04-16T10:56:35Z</time>
      </trkpt>
      <trkpt lat="48.29222" lon="-4.26778">
        <ele>18.4</ele>
        <time>2013-04-16T10:56:39Z</time>
      </trkpt>
      <trkpt lat="48.29222" lon="-4.2678">
        <ele>18.4</ele>
        <time>2013-04-16T10:56:40Z</time>
      </trkpt>
      <trkpt lat="48.29223" lon="-4.26792">
        <ele>18.88</ele>
        <time>2013-04-16T10:56:47Z</time>
      </trkpt>
      <trkpt lat="48.29218" lon="-4.26811">
        <ele>20.32</ele>
        <time>2013-04-16T10:57:03Z</time>
      </trkpt>
      <trkpt lat="48.2922" lon="-4.26813">
        <ele>19.36</ele>
        <time>2013-04-16T10:57:21Z</time>
      </trkpt>
      <trkpt lat="48.29221" lon="-4.2681">
        <ele>19.36</ele>
        <time>2013-04-16T10:58:07Z</time>
      </trkpt>
      <trkpt lat="48.29226" lon="-4.26802">
        <ele>19.84</ele>
        <time>2013-04-16T10:58:13Z</time>
      </trkpt>
      <trkpt lat="48.29223" lon="-4.2678">
        <ele>19.36</ele>
        <time>2013-04-16T10:58:24Z</time>
      </trkpt>
      <trkpt lat="48.29223" lon="-4.26769">
        <ele>18.4</ele>
        <time>2013-04-16T10:58:29Z</time>
      </trkpt>
      <trkpt lat="48.29223" lon="-4.26765">
        <ele>18.4</ele>
        <time>2013-04-16T10:58:31Z</time>
      </trkpt>
      <trkpt lat="48.29235" lon="-4.26762">
        <ele>17.44</ele>
        <time>2013-04-16T10:58:44Z</time>
      </trkpt>
      <trkpt lat="48.2925" lon="-4.2676">
        <ele>16</ele>
        <time>2013-04-16T10:58:55Z</time>
      </trkpt>
      <trkpt lat="48.29254" lon="-4.26759">
        <ele>15.52</ele>
        <time>2013-04-16T10:58:58Z</time>
      </trkpt>
      <trkpt lat="48.29256" lon="-4.26756">
        <ele>15.52</ele>
        <time>2013-04-16T10:59:01Z</time>
      </trkpt>
      <trkpt lat="48.29255" lon="-4.26754">
        <ele>15.52</ele>
        <time>2013-04-16T10:59:20Z</time>
      </trkpt>
      <trkpt lat="48.29255" lon="-4.26754">
        <ele>15.04</ele>
        <time>2013-04-16T10:59:22Z</time>
      </trkpt>
      <trkpt lat="48.29277" lon="-4.26764">
        <ele>14.56</ele>
        <time>2013-04-16T10:59:39Z</time>
      </trkpt>
      <trkpt lat="48.29301" lon="-4.26769">
        <ele>13.12</ele>
        <time>2013-04-16T10:59:58Z</time>
      </trkpt>
      <trkpt lat="48.29302" lon="-4.26775">
        <ele>14.08</ele>
        <time>2013-04-16T11:00:02Z</time>
      </trkpt>
      <trkpt lat="48.293" lon="-4.26784">
        <ele>14.56</ele>
        <time>2013-04-16T11:00:07Z</time>
      </trkpt>
      <trkpt lat="48.29309" lon="-4.26802">
        <ele>15.52</ele>
        <time>2013-04-16T11:00:19Z</time>
      </trkpt>
      <trkpt lat="48.29321" lon="-4.26823">
        <ele>16</ele>
        <time>2013-04-16T11:00:33Z</time>
      </trkpt>
      <trkpt lat="48.29317" lon="-4.26827">
        <ele>16</ele>
        <time>2013-04-16T11:00:47Z</time>
      </trkpt>
      <trkpt lat="48.29317" lon="-4.26828">
        <ele>16</ele>
        <time>2013-04-16T11:00:51Z</time>
      </trkpt>
      <trkpt lat="48.2932" lon="-4.26827">
        <ele>16</ele>
        <time>2013-04-16T11:01:04Z</time>
      </trkpt>
      <trkpt lat="48.2932" lon="-4.26825">
        <ele>15.52</ele>
        <time>2013-04-16T11:01:19Z</time>
      </trkpt>
      <trkpt lat="48.2932" lon="-4.26826">
        <ele>13.12</ele>
        <time>2013-04-16T11:01:39Z</time>
      </trkpt>
      <trkpt lat="48.2932" lon="-4.26826">
        <ele>16.48</ele>
        <time>2013-04-16T11:01:42Z</time>
      </trkpt>
    </trkseg>
  </trk>
</gpx>